Wetterdaten: Donnerstag, 30.04.2026
Datum Zeit Temp. Aussen Temp. o. S. Temp +5cm Feuchte Auss Luftdruck Regen Sonnenschein Solar Windböen Empfang
30.04.2026 00:00 11,3 °C 10,0 °C 7,2 °C 60 % 1027,4 hPa 0,0 l/m² 0 min 0 W/m² 6,4 km/h (2 Bft) 98,00 %
30.04.2026 00:02 11,3 °C 10,0 °C 7,2 °C 60 % 1027,4 hPa 0,0 l/m² 0 min 0 W/m² 0,0 km/h (0 Bft) 11,11 %
30.04.2026 00:04 11,2 °C 10,0 °C 7,2 °C 60 % 1027,4 hPa 0,0 l/m² 0 min 0 W/m² 6,4 km/h (2 Bft) 78,95 %
30.04.2026 00:07 11,2 °C 10,0 °C 7,2 °C 60 % 1027,5 hPa 0,0 l/m² 0 min 0 W/m² 9,7 km/h (2 Bft) 97,33 %
30.04.2026 00:08 11,2 °C 10,0 °C 7,2 °C 60 % 1027,5 hPa 0,0 l/m² 0 min 0 W/m² 6,4 km/h (2 Bft) 95,65 %
30.04.2026 00:10 11,2 °C 10,0 °C 6,7 °C 60 % 1027,5 hPa 0,0 l/m² 0 min 0 W/m² 6,4 km/h (2 Bft) 100,00 %
30.04.2026 00:12 11,1 °C 10,0 °C 6,7 °C 60 % 1027,5 hPa 0,0 l/m² 0 min 0 W/m² 6,4 km/h (2 Bft) 91,43 %
30.04.2026 00:14 11,1 °C 10,0 °C 6,7 °C 61 % 1027,5 hPa 0,0 l/m² 0 min 0 W/m² 9,7 km/h (2 Bft) 95,74 %
30.04.2026 00:16 11,1 °C 10,0 °C 6,7 °C 60 % 1027,5 hPa 0,0 l/m² 0 min 0 W/m² 6,4 km/h (2 Bft) 82,98 %
30.04.2026 00:18 11,1 °C 10,0 °C 6,7 °C 61 % 1027,6 hPa 0,0 l/m² 0 min 0 W/m² 3,2 km/h (1 Bft) 80,67 %
30.04.2026 00:20 11,1 °C 10,0 °C 6,7 °C 61 % 1027,6 hPa 0,0 l/m² 0 min 0 W/m² 6,4 km/h (2 Bft) 97,73 %
30.04.2026 00:22 11,1 °C 10,0 °C 6,7 °C 61 % 1027,6 hPa 0,0 l/m² 0 min 0 W/m² 6,4 km/h (2 Bft) 97,87 %
30.04.2026 00:24 11,0 °C 10,0 °C 6,7 °C 61 % 1027,6 hPa 0,0 l/m² 0 min 0 W/m² 6,4 km/h (2 Bft) 100,00 %
30.04.2026 00:26 11,0 °C 10,0 °C 6,7 °C 62 % 1027,7 hPa 0,0 l/m² 0 min 0 W/m² 6,4 km/h (2 Bft) 95,74 %
30.04.2026 00:28 10,9 °C 9,4 °C 6,7 °C 61 % 1027,7 hPa 0,0 l/m² 0 min 0 W/m² 9,7 km/h (2 Bft) 93,62 %
30.04.2026 00:30 10,9 °C 9,4 °C 6,7 °C 61 % 1027,7 hPa 0,0 l/m² 0 min 0 W/m² 6,4 km/h (2 Bft) 97,87 %
30.04.2026 00:32 10,8 °C 9,4 °C 6,7 °C 61 % 1027,6 hPa 0,0 l/m² 0 min 0 W/m² 9,7 km/h (2 Bft) 97,87 %
30.04.2026 00:34 10,8 °C 9,4 °C 6,7 °C 61 % 1027,6 hPa 0,0 l/m² 0 min 0 W/m² 9,7 km/h (2 Bft) 95,74 %
30.04.2026 00:36 10,7 °C 9,4 °C 6,7 °C 62 % 1027,7 hPa 0,0 l/m² 0 min 0 W/m² 6,4 km/h (2 Bft) 94,00 %
30.04.2026 00:38 10,7 °C 9,4 °C 6,7 °C 61 % 1027,7 hPa 0,0 l/m² 0 min 0 W/m² 9,7 km/h (2 Bft) 95,74 %
30.04.2026 00:40 10,7 °C 9,4 °C 6,1 °C 62 % 1027,7 hPa 0,0 l/m² 0 min 0 W/m² 6,4 km/h (2 Bft) 95,65 %
30.04.2026 00:42 10,6 °C 9,4 °C 6,1 °C 62 % 1027,8 hPa 0,0 l/m² 0 min 0 W/m² 9,7 km/h (2 Bft) 95,74 %
30.04.2026 00:44 10,6 °C 9,4 °C 6,1 °C 61 % 1027,8 hPa 0,0 l/m² 0 min 0 W/m² 6,4 km/h (2 Bft) 95,74 %
30.04.2026 00:46 10,6 °C 9,4 °C 6,1 °C 62 % 1027,8 hPa 0,0 l/m² 0 min 0 W/m² 6,4 km/h (2 Bft) 97,87 %
30.04.2026 00:48 10,6 °C 9,4 °C 6,1 °C 62 % 1027,9 hPa 0,0 l/m² 0 min 0 W/m² 6,4 km/h (2 Bft) 95,74 %
30.04.2026 00:50 10,5 °C 9,4 °C 6,1 °C 62 % 1027,9 hPa 0,0 l/m² 0 min 0 W/m² 9,7 km/h (2 Bft) 93,62 %
30.04.2026 00:52 10,5 °C 9,4 °C 6,1 °C 62 % 1027,9 hPa 0,0 l/m² 0 min 0 W/m² 6,4 km/h (2 Bft) 95,74 %
30.04.2026 00:54 10,4 °C 9,4 °C 6,1 °C 62 % 1027,9 hPa 0,0 l/m² 0 min 0 W/m² 3,2 km/h (1 Bft) 95,74 %
30.04.2026 00:56 10,4 °C 9,4 °C 6,1 °C 63 % 1027,9 hPa 0,0 l/m² 0 min 0 W/m² 6,4 km/h (2 Bft) 95,74 %
30.04.2026 00:58 10,4 °C 9,4 °C 6,1 °C 62 % 1027,9 hPa 0,0 l/m² 0 min 0 W/m² 6,4 km/h (2 Bft) 95,92 %
30.04.2026 01:00 10,3 °C 9,4 °C 6,1 °C 62 % 1027,9 hPa 0,0 l/m² 0 min 0 W/m² 6,4 km/h (2 Bft) 97,87 %
30.04.2026 01:02 10,3 °C 9,4 °C 6,1 °C 62 % 1028,0 hPa 0,0 l/m² 0 min 0 W/m² 9,7 km/h (2 Bft) 95,74 %
30.04.2026 01:04 10,3 °C 8,9 °C 6,1 °C 62 % 1028,0 hPa 0,0 l/m² 0 min 0 W/m² 6,4 km/h (2 Bft) 97,87 %
30.04.2026 01:06 10,3 °C 8,9 °C 6,1 °C 62 % 1028,1 hPa 0,0 l/m² 0 min 0 W/m² 3,2 km/h (1 Bft) 97,87 %
30.04.2026 01:08 10,2 °C 8,9 °C 6,1 °C 63 % 1028,1 hPa 0,0 l/m² 0 min 0 W/m² 3,2 km/h (1 Bft) 97,87 %
30.04.2026 01:10 10,2 °C 8,9 °C 6,1 °C 63 % 1028,1 hPa 0,0 l/m² 0 min 0 W/m² 3,2 km/h (1 Bft) 95,74 %
30.04.2026 01:12 10,2 °C 8,9 °C 6,1 °C 63 % 1028,2 hPa 0,0 l/m² 0 min 0 W/m² 6,4 km/h (2 Bft) 93,88 %
30.04.2026 01:14 10,1 °C 8,9 °C 6,1 °C 63 % 1028,1 hPa 0,0 l/m² 0 min 0 W/m² 3,2 km/h (1 Bft) 97,87 %
30.04.2026 01:16 10,1 °C 8,9 °C 5,6 °C 64 % 1028,1 hPa 0,0 l/m² 0 min 0 W/m² 3,2 km/h (1 Bft) 97,87 %
30.04.2026 01:18 10,1 °C 8,9 °C 6,1 °C 64 % 1028,1 hPa 0,0 l/m² 0 min 0 W/m² 6,4 km/h (2 Bft) 97,87 %
30.04.2026 01:20 10,0 °C 8,9 °C 5,6 °C 64 % 1028,1 hPa 0,0 l/m² 0 min 0 W/m² 3,2 km/h (1 Bft) 97,37 %
30.04.2026 01:22 9,9 °C 8,9 °C 5,6 °C 64 % 1028,1 hPa 0,0 l/m² 0 min 0 W/m² 3,2 km/h (1 Bft) 97,87 %
30.04.2026 01:24 9,9 °C 8,3 °C 5,6 °C 65 % 1028,1 hPa 0,0 l/m² 0 min 0 W/m² 3,2 km/h (1 Bft) 100,00 %
30.04.2026 01:26 9,9 °C 8,3 °C 5,6 °C 65 % 1028,2 hPa 0,0 l/m² 0 min 0 W/m² 3,2 km/h (1 Bft) 100,00 %
30.04.2026 01:28 9,8 °C 8,3 °C 5,6 °C 65 % 1028,2 hPa 0,0 l/m² 0 min 0 W/m² 3,2 km/h (1 Bft) 100,00 %
30.04.2026 01:30 9,8 °C 8,3 °C 5,6 °C 65 % 1028,2 hPa 0,0 l/m² 0 min 0 W/m² 3,2 km/h (1 Bft) 100,00 %
30.04.2026 01:32 9,8 °C 8,3 °C 5,6 °C 65 % 1028,2 hPa 0,0 l/m² 0 min 0 W/m² 3,2 km/h (1 Bft) 100,00 %
30.04.2026 01:34 9,7 °C 8,3 °C 5,0 °C 65 % 1028,2 hPa 0,0 l/m² 0 min 0 W/m² 3,2 km/h (1 Bft) 98,00 %
30.04.2026 01:36 9,7 °C 8,3 °C 5,0 °C 66 % 1028,2 hPa 0,0 l/m² 0 min 0 W/m² 3,2 km/h (1 Bft) 100,00 %
30.04.2026 01:38 9,7 °C 8,3 °C 5,0 °C 66 % 1028,2 hPa 0,0 l/m² 0 min 0 W/m² 3,2 km/h (1 Bft) 100,00 %
30.04.2026 01:40 9,6 °C 7,8 °C 5,0 °C 66 % 1028,2 hPa 0,0 l/m² 0 min 0 W/m² 3,2 km/h (1 Bft) 100,00 %
30.04.2026 01:42 9,6 °C 7,8 °C 5,0 °C 66 % 1028,3 hPa 0,0 l/m² 0 min 0 W/m² 0,0 km/h (0 Bft) 100,00 %
30.04.2026 01:44 9,5 °C 7,8 °C 5,0 °C 66 % 1028,2 hPa 0,0 l/m² 0 min 0 W/m² 3,2 km/h (1 Bft) 100,00 %
30.04.2026 01:46 9,4 °C 7,8 °C 5,0 °C 66 % 1028,3 hPa 0,0 l/m² 0 min 0 W/m² 3,2 km/h (1 Bft) 97,83 %
30.04.2026 01:48 9,4 °C 7,8 °C 5,0 °C 66 % 1028,3 hPa 0,0 l/m² 0 min 0 W/m² 3,2 km/h (1 Bft) 97,37 %
30.04.2026 01:50 9,3 °C 7,8 °C 4,4 °C 67 % 1028,3 hPa 0,0 l/m² 0 min 0 W/m² 3,2 km/h (1 Bft) 100,00 %
30.04.2026 01:52 9,3 °C 7,8 °C 5,0 °C 67 % 1028,2 hPa 0,0 l/m² 0 min 0 W/m² 3,2 km/h (1 Bft) 97,87 %
30.04.2026 01:54 9,2 °C 7,2 °C 4,4 °C 67 % 1028,2 hPa 0,0 l/m² 0 min 0 W/m² 6,4 km/h (2 Bft) 97,87 %
30.04.2026 01:56 9,2 °C 7,2 °C 5,0 °C 66 % 1028,2 hPa 0,0 l/m² 0 min 0 W/m² 3,2 km/h (1 Bft) 97,87 %
30.04.2026 01:58 9,1 °C 7,2 °C 5,0 °C 67 % 1028,2 hPa 0,0 l/m² 0 min 0 W/m² 3,2 km/h (1 Bft) 97,87 %
30.04.2026 02:00 9,1 °C 7,2 °C 5,0 °C 67 % 1028,2 hPa 0,0 l/m² 0 min 0 W/m² 3,2 km/h (1 Bft) 97,87 %
30.04.2026 02:02 9,0 °C 7,2 °C 5,0 °C 66 % 1028,2 hPa 0,0 l/m² 0 min 0 W/m² 6,4 km/h (2 Bft) 95,74 %
30.04.2026 02:04 8,9 °C 7,2 °C 5,0 °C 66 % 1028,2 hPa 0,0 l/m² 0 min 0 W/m² 3,2 km/h (1 Bft) 95,65 %
30.04.2026 02:06 8,8 °C 7,2 °C 4,4 °C 67 % 1028,1 hPa 0,0 l/m² 0 min 0 W/m² 6,4 km/h (2 Bft) 97,87 %
30.04.2026 02:08 8,8 °C 7,2 °C 4,4 °C 67 % 1028,2 hPa 0,0 l/m² 0 min 0 W/m² 6,4 km/h (2 Bft) 97,87 %
30.04.2026 02:10 8,8 °C 7,2 °C 4,4 °C 67 % 1028,2 hPa 0,0 l/m² 0 min 0 W/m² 6,4 km/h (2 Bft) 98,00 %
30.04.2026 02:12 8,7 °C 7,2 °C 4,4 °C 67 % 1028,2 hPa 0,0 l/m² 0 min 0 W/m² 3,2 km/h (1 Bft) 100,00 %
30.04.2026 02:14 8,7 °C 7,2 °C 4,4 °C 67 % 1028,2 hPa 0,0 l/m² 0 min 0 W/m² 3,2 km/h (1 Bft) 97,78 %
30.04.2026 02:16 8,6 °C 7,2 °C 4,4 °C 67 % 1028,2 hPa 0,0 l/m² 0 min 0 W/m² 6,4 km/h (2 Bft) 98,08 %
30.04.2026 02:18 8,6 °C 7,2 °C 4,4 °C 67 % 1028,2 hPa 0,0 l/m² 0 min 0 W/m² 6,4 km/h (2 Bft) 98,00 %
30.04.2026 02:20 8,6 °C 7,2 °C 4,4 °C 67 % 1028,3 hPa 0,0 l/m² 0 min 0 W/m² 3,2 km/h (1 Bft) 100,00 %
30.04.2026 02:22 8,5 °C 7,2 °C 4,4 °C 67 % 1028,2 hPa 0,0 l/m² 0 min 0 W/m² 12,9 km/h (3 Bft) 100,00 %
30.04.2026 02:24 8,4 °C 7,2 °C 4,4 °C 66 % 1028,2 hPa 0,0 l/m² 0 min 0 W/m² 6,4 km/h (2 Bft) 100,00 %
30.04.2026 02:26 8,4 °C 7,2 °C 4,4 °C 67 % 1028,2 hPa 0,0 l/m² 0 min 0 W/m² 3,2 km/h (1 Bft) 100,00 %
30.04.2026 02:28 8,4 °C 7,2 °C 4,4 °C 67 % 1028,2 hPa 0,0 l/m² 0 min 0 W/m² 9,7 km/h (2 Bft) 100,00 %
30.04.2026 02:30 8,4 °C 7,2 °C 4,4 °C 67 % 1028,2 hPa 0,0 l/m² 0 min 0 W/m² 6,4 km/h (2 Bft) 100,00 %
30.04.2026 02:32 8,3 °C 7,2 °C 4,4 °C 67 % 1028,2 hPa 0,0 l/m² 0 min 0 W/m² 6,4 km/h (2 Bft) 100,00 %
30.04.2026 02:34 8,3 °C 7,2 °C 4,4 °C 67 % 1028,3 hPa 0,0 l/m² 0 min 0 W/m² 6,4 km/h (2 Bft) 100,00 %
30.04.2026 02:36 8,3 °C 7,2 °C 4,4 °C 68 % 1028,3 hPa 0,0 l/m² 0 min 0 W/m² 6,4 km/h (2 Bft) 100,00 %
30.04.2026 02:38 8,2 °C 7,2 °C 4,4 °C 68 % 1028,2 hPa 0,0 l/m² 0 min 0 W/m² 3,2 km/h (1 Bft) 100,00 %
30.04.2026 02:40 8,2 °C 7,2 °C 4,4 °C 68 % 1028,2 hPa 0,0 l/m² 0 min 0 W/m² 3,2 km/h (1 Bft) 97,87 %
30.04.2026 02:42 8,2 °C 7,2 °C 4,4 °C 68 % 1028,2 hPa 0,0 l/m² 0 min 0 W/m² 3,2 km/h (1 Bft) 100,00 %
30.04.2026 02:44 8,2 °C 7,2 °C 4,4 °C 68 % 1028,2 hPa 0,0 l/m² 0 min 0 W/m² 3,2 km/h (1 Bft) 100,00 %
30.04.2026 02:46 8,2 °C 6,7 °C 3,9 °C 68 % 1028,2 hPa 0,0 l/m² 0 min 0 W/m² 3,2 km/h (1 Bft) 100,00 %
30.04.2026 02:48 8,1 °C 6,7 °C 4,4 °C 68 % 1028,2 hPa 0,0 l/m² 0 min 0 W/m² 3,2 km/h (1 Bft) 94,44 %
30.04.2026 02:50 8,1 °C 6,7 °C 3,9 °C 69 % 1028,2 hPa 0,0 l/m² 0 min 0 W/m² 3,2 km/h (1 Bft) 96,36 %
30.04.2026 02:52 8,1 °C 6,7 °C 3,9 °C 68 % 1028,2 hPa 0,0 l/m² 0 min 0 W/m² 3,2 km/h (1 Bft) 97,92 %
30.04.2026 02:54 8,1 °C 6,7 °C 3,9 °C 68 % 1028,2 hPa 0,0 l/m² 0 min 0 W/m² 3,2 km/h (1 Bft) 96,00 %
30.04.2026 02:56 8,1 °C 6,7 °C 3,9 °C 68 % 1028,2 hPa 0,0 l/m² 0 min 0 W/m² 3,2 km/h (1 Bft) 100,00 %
30.04.2026 02:58 8,0 °C 6,7 °C 3,9 °C 68 % 1028,2 hPa 0,0 l/m² 0 min 0 W/m² 3,2 km/h (1 Bft) 96,00 %
30.04.2026 03:00 8,0 °C 6,7 °C 3,9 °C 69 % 1028,2 hPa 0,0 l/m² 0 min 0 W/m² 3,2 km/h (1 Bft) 97,87 %
30.04.2026 03:02 7,9 °C 6,7 °C 3,9 °C 69 % 1028,2 hPa 0,0 l/m² 0 min 0 W/m² 3,2 km/h (1 Bft) 96,00 %
30.04.2026 03:04 7,9 °C 6,7 °C 3,9 °C 68 % 1028,2 hPa 0,0 l/m² 0 min 0 W/m² 3,2 km/h (1 Bft) 97,37 %
30.04.2026 03:06 7,9 °C 6,7 °C 3,9 °C 68 % 1028,2 hPa 0,0 l/m² 0 min 0 W/m² 6,4 km/h (2 Bft) 98,00 %
30.04.2026 03:08 7,9 °C 6,7 °C 3,9 °C 68 % 1028,3 hPa 0,0 l/m² 0 min 0 W/m² 3,2 km/h (1 Bft) 97,83 %
30.04.2026 03:10 7,8 °C 6,7 °C 3,9 °C 68 % 1028,2 hPa 0,0 l/m² 0 min 0 W/m² 6,4 km/h (2 Bft) 98,00 %
30.04.2026 03:12 7,8 °C 6,7 °C 3,9 °C 68 % 1028,2 hPa 0,0 l/m² 0 min 0 W/m² 6,4 km/h (2 Bft) 98,00 %
30.04.2026 03:14 7,8 °C 6,7 °C 3,9 °C 68 % 1028,2 hPa 0,0 l/m² 0 min 0 W/m² 3,2 km/h (1 Bft) 97,87 %
30.04.2026 03:16 7,8 °C 6,7 °C 3,9 °C 69 % 1028,3 hPa 0,0 l/m² 0 min 0 W/m² 6,4 km/h (2 Bft) 97,87 %
30.04.2026 03:18 7,8 °C 6,7 °C 3,9 °C 69 % 1028,3 hPa 0,0 l/m² 0 min 0 W/m² 3,2 km/h (1 Bft) 97,87 %
30.04.2026 03:20 7,8 °C 6,7 °C 3,9 °C 68 % 1028,3 hPa 0,0 l/m² 0 min 0 W/m² 3,2 km/h (1 Bft) 97,87 %
30.04.2026 03:22 7,8 °C 6,7 °C 3,9 °C 69 % 1028,4 hPa 0,0 l/m² 0 min 0 W/m² 3,2 km/h (1 Bft) 100,00 %
30.04.2026 03:24 7,7 °C 6,7 °C 3,9 °C 69 % 1028,3 hPa 0,0 l/m² 0 min 0 W/m² 0,0 km/h (0 Bft) 97,87 %
30.04.2026 03:26 7,7 °C 6,7 °C 3,9 °C 69 % 1028,3 hPa 0,0 l/m² 0 min 0 W/m² 3,2 km/h (1 Bft) 97,87 %
30.04.2026 03:28 7,7 °C 6,7 °C 3,9 °C 69 % 1028,3 hPa 0,0 l/m² 0 min 0 W/m² 0,0 km/h (0 Bft) 94,74 %
30.04.2026 03:30 7,7 °C 6,1 °C 3,9 °C 69 % 1028,3 hPa 0,0 l/m² 0 min 0 W/m² 0,0 km/h (0 Bft) 93,62 %
30.04.2026 03:32 7,6 °C 6,1 °C 3,3 °C 69 % 1028,3 hPa 0,0 l/m² 0 min 0 W/m² 0,0 km/h (0 Bft) 94,00 %
30.04.2026 03:34 7,6 °C 6,1 °C 3,3 °C 69 % 1028,3 hPa 0,0 l/m² 0 min 0 W/m² 3,2 km/h (1 Bft) 95,74 %
30.04.2026 03:36 7,6 °C 6,1 °C 3,3 °C 69 % 1028,3 hPa 0,0 l/m² 0 min 0 W/m² 3,2 km/h (1 Bft) 94,34 %
30.04.2026 03:38 7,6 °C 6,1 °C 3,3 °C 69 % 1028,3 hPa 0,0 l/m² 0 min 0 W/m² 0,0 km/h (0 Bft) 95,65 %
30.04.2026 03:40 7,6 °C 6,1 °C 3,3 °C 69 % 1028,3 hPa 0,0 l/m² 0 min 0 W/m² 0,0 km/h (0 Bft) 93,62 %
30.04.2026 03:42 7,5 °C 6,1 °C 3,3 °C 70 % 1028,3 hPa 0,0 l/m² 0 min 0 W/m² 0,0 km/h (0 Bft) 95,74 %
30.04.2026 03:44 7,5 °C 6,1 °C 3,3 °C 70 % 1028,4 hPa 0,0 l/m² 0 min 0 W/m² 3,2 km/h (1 Bft) 95,74 %
30.04.2026 03:46 7,4 °C 6,1 °C 3,3 °C 70 % 1028,3 hPa 0,0 l/m² 0 min 0 W/m² 0,0 km/h (0 Bft) 95,12 %
30.04.2026 03:48 7,4 °C 5,6 °C 2,8 °C 70 % 1028,3 hPa 0,0 l/m² 0 min 0 W/m² 0,0 km/h (0 Bft) 95,74 %
30.04.2026 03:50 7,3 °C 5,6 °C 2,8 °C 70 % 1028,3 hPa 0,0 l/m² 0 min 0 W/m² 3,2 km/h (1 Bft) 93,62 %
30.04.2026 03:52 7,3 °C 5,6 °C 2,8 °C 70 % 1028,3 hPa 0,0 l/m² 0 min 0 W/m² 0,0 km/h (0 Bft) 96,00 %
30.04.2026 03:54 7,3 °C 5,6 °C 2,8 °C 70 % 1028,3 hPa 0,0 l/m² 0 min 0 W/m² 3,2 km/h (1 Bft) 95,65 %
30.04.2026 03:56 7,2 °C 5,6 °C 2,8 °C 71 % 1028,3 hPa 0,0 l/m² 0 min 0 W/m² 0,0 km/h (0 Bft) 98,00 %
30.04.2026 03:58 7,2 °C 5,6 °C 2,8 °C 71 % 1028,4 hPa 0,0 l/m² 0 min 0 W/m² 0,0 km/h (0 Bft) 97,87 %
30.04.2026 04:00 7,2 °C 5,6 °C 2,8 °C 71 % 1028,4 hPa 0,0 l/m² 0 min 0 W/m² 0,0 km/h (0 Bft) 97,87 %
30.04.2026 04:02 7,1 °C 5,6 °C 2,8 °C 71 % 1028,3 hPa 0,0 l/m² 0 min 0 W/m² 0,0 km/h (0 Bft) 97,87 %
30.04.2026 04:04 7,1 °C 5,6 °C 2,8 °C 71 % 1028,4 hPa 0,0 l/m² 0 min 0 W/m² 0,0 km/h (0 Bft) 97,87 %
30.04.2026 04:06 7,1 °C 5,6 °C 2,8 °C 71 % 1028,4 hPa 0,0 l/m² 0 min 0 W/m² 0,0 km/h (0 Bft) 97,56 %
30.04.2026 04:08 7,1 °C 5,6 °C 2,8 °C 71 % 1028,4 hPa 0,0 l/m² 0 min 0 W/m² 0,0 km/h (0 Bft) 97,87 %
30.04.2026 04:10 7,0 °C 5,6 °C 2,8 °C 71 % 1028,4 hPa 0,0 l/m² 0 min 0 W/m² 0,0 km/h (0 Bft) 97,87 %
30.04.2026 04:12 6,9 °C 5,6 °C 2,8 °C 71 % 1028,4 hPa 0,0 l/m² 0 min 0 W/m² 0,0 km/h (0 Bft) 93,88 %
30.04.2026 04:14 6,9 °C 5,6 °C 2,8 °C 71 % 1028,5 hPa 0,0 l/m² 0 min 0 W/m² 0,0 km/h (0 Bft) 97,87 %
30.04.2026 04:16 6,9 °C 5,6 °C 2,8 °C 71 % 1028,5 hPa 0,0 l/m² 0 min 0 W/m² 3,2 km/h (1 Bft) 97,87 %
30.04.2026 04:18 6,8 °C 5,6 °C 2,8 °C 71 % 1028,5 hPa 0,0 l/m² 0 min 0 W/m² 0,0 km/h (0 Bft) 97,87 %
30.04.2026 04:20 6,8 °C 5,6 °C 2,8 °C 71 % 1028,5 hPa 0,0 l/m² 0 min 0 W/m² 3,2 km/h (1 Bft) 97,87 %
30.04.2026 04:22 6,8 °C 5,6 °C 2,8 °C 72 % 1028,5 hPa 0,0 l/m² 0 min 0 W/m² 3,2 km/h (1 Bft) 97,87 %
30.04.2026 04:24 6,7 °C 5,6 °C 2,8 °C 72 % 1028,5 hPa 0,0 l/m² 0 min 0 W/m² 3,2 km/h (1 Bft) 97,87 %
30.04.2026 04:26 6,7 °C 5,0 °C 2,8 °C 72 % 1028,5 hPa 0,0 l/m² 0 min 0 W/m² 3,2 km/h (1 Bft) 97,83 %
30.04.2026 04:28 6,6 °C 5,0 °C 2,8 °C 72 % 1028,6 hPa 0,0 l/m² 0 min 0 W/m² 3,2 km/h (1 Bft) 95,74 %
30.04.2026 04:30 6,6 °C 5,0 °C 2,8 °C 72 % 1028,5 hPa 0,0 l/m² 0 min 0 W/m² 3,2 km/h (1 Bft) 91,49 %
30.04.2026 04:32 6,6 °C 5,0 °C 2,8 °C 72 % 1028,5 hPa 0,0 l/m² 0 min 0 W/m² 3,2 km/h (1 Bft) 97,87 %
30.04.2026 04:34 6,5 °C 5,0 °C 2,8 °C 72 % 1028,6 hPa 0,0 l/m² 0 min 0 W/m² 3,2 km/h (1 Bft) 97,87 %
30.04.2026 04:36 6,5 °C 5,0 °C 2,8 °C 72 % 1028,6 hPa 0,0 l/m² 0 min 0 W/m² 3,2 km/h (1 Bft) 95,74 %
30.04.2026 04:38 6,5 °C 5,0 °C 2,8 °C 73 % 1028,6 hPa 0,0 l/m² 0 min 0 W/m² 6,4 km/h (2 Bft) 94,00 %
30.04.2026 04:40 6,4 °C 5,0 °C 2,8 °C 73 % 1028,6 hPa 0,0 l/m² 0 min 0 W/m² 3,2 km/h (1 Bft) 97,37 %
30.04.2026 04:42 6,4 °C 5,0 °C 2,8 °C 73 % 1028,6 hPa 0,0 l/m² 0 min 0 W/m² 3,2 km/h (1 Bft) 93,62 %
30.04.2026 04:44 6,4 °C 5,0 °C 2,8 °C 73 % 1028,5 hPa 0,0 l/m² 0 min 0 W/m² 3,2 km/h (1 Bft) 93,62 %
30.04.2026 04:46 6,3 °C 5,0 °C 2,8 °C 73 % 1028,5 hPa 0,0 l/m² 0 min 0 W/m² 3,2 km/h (1 Bft) 97,87 %
30.04.2026 04:48 6,3 °C 5,0 °C 2,8 °C 73 % 1028,5 hPa 0,0 l/m² 0 min 0 W/m² 0,0 km/h (0 Bft) 93,88 %
30.04.2026 04:50 6,3 °C 5,0 °C 2,8 °C 73 % 1028,5 hPa 0,0 l/m² 0 min 0 W/m² 3,2 km/h (1 Bft) 97,62 %
30.04.2026 04:52 6,3 °C 5,0 °C 2,2 °C 73 % 1028,5 hPa 0,0 l/m² 0 min 0 W/m² 3,2 km/h (1 Bft) 98,00 %
30.04.2026 04:54 6,2 °C 5,0 °C 2,2 °C 73 % 1028,6 hPa 0,0 l/m² 0 min 0 W/m² 3,2 km/h (1 Bft) 89,36 %
30.04.2026 04:56 6,2 °C 5,0 °C 2,2 °C 73 % 1028,5 hPa 0,0 l/m² 0 min 0 W/m² 3,2 km/h (1 Bft) 96,23 %
30.04.2026 04:58 6,2 °C 5,0 °C 2,2 °C 73 % 1028,6 hPa 0,0 l/m² 0 min 0 W/m² 3,2 km/h (1 Bft) 95,74 %
30.04.2026 05:00 6,2 °C 5,0 °C 2,2 °C 73 % 1028,5 hPa 0,0 l/m² 0 min 0 W/m² 3,2 km/h (1 Bft) 95,65 %
30.04.2026 05:02 6,2 °C 5,0 °C 2,2 °C 73 % 1028,6 hPa 0,0 l/m² 0 min 0 W/m² 3,2 km/h (1 Bft) 95,74 %
30.04.2026 05:04 6,1 °C 5,0 °C 2,2 °C 73 % 1028,6 hPa 0,0 l/m² 0 min 0 W/m² 3,2 km/h (1 Bft) 93,62 %
30.04.2026 05:06 6,1 °C 5,0 °C 2,2 °C 73 % 1028,6 hPa 0,0 l/m² 0 min 0 W/m² 3,2 km/h (1 Bft) 91,49 %
30.04.2026 05:08 6,1 °C 5,0 °C 2,2 °C 73 % 1028,6 hPa 0,0 l/m² 0 min 0 W/m² 3,2 km/h (1 Bft) 100,00 %
30.04.2026 05:10 6,1 °C 5,0 °C 2,2 °C 73 % 1028,6 hPa 0,0 l/m² 0 min 0 W/m² 3,2 km/h (1 Bft) 97,87 %
30.04.2026 05:12 6,1 °C 5,0 °C 2,2 °C 73 % 1028,6 hPa 0,0 l/m² 0 min 0 W/m² 3,2 km/h (1 Bft) 95,74 %
30.04.2026 05:14 6,1 °C 5,0 °C 2,2 °C 73 % 1028,6 hPa 0,0 l/m² 0 min 0 W/m² 3,2 km/h (1 Bft) 95,74 %
30.04.2026 05:16 6,0 °C 5,0 °C 2,2 °C 73 % 1028,6 hPa 0,0 l/m² 0 min 0 W/m² 3,2 km/h (1 Bft) 97,87 %
30.04.2026 05:18 6,0 °C 5,0 °C 2,2 °C 73 % 1028,6 hPa 0,0 l/m² 0 min 0 W/m² 3,2 km/h (1 Bft) 97,83 %
30.04.2026 05:20 5,9 °C 5,0 °C 2,2 °C 73 % 1028,6 hPa 0,0 l/m² 0 min 0 W/m² 3,2 km/h (1 Bft) 97,87 %
30.04.2026 05:22 5,9 °C 5,0 °C 2,2 °C 73 % 1028,6 hPa 0,0 l/m² 0 min 0 W/m² 3,2 km/h (1 Bft) 100,00 %
30.04.2026 05:24 5,9 °C 4,4 °C 2,2 °C 73 % 1028,6 hPa 0,0 l/m² 0 min 0 W/m² 0,0 km/h (0 Bft) 100,00 %
30.04.2026 05:26 5,9 °C 4,4 °C 2,2 °C 74 % 1028,6 hPa 0,0 l/m² 0 min 0 W/m² 0,0 km/h (0 Bft) 96,30 %
30.04.2026 05:28 5,8 °C 4,4 °C 2,2 °C 74 % 1028,6 hPa 0,0 l/m² 0 min 0 W/m² 0,0 km/h (0 Bft) 100,00 %
30.04.2026 05:30 5,8 °C 4,4 °C 2,2 °C 74 % 1028,6 hPa 0,0 l/m² 0 min 0 W/m² 3,2 km/h (1 Bft) 100,00 %
30.04.2026 05:32 5,8 °C 4,4 °C 2,2 °C 74 % 1028,6 hPa 0,0 l/m² 0 min 0 W/m² 3,2 km/h (1 Bft) 100,00 %
30.04.2026 05:34 5,8 °C 4,4 °C 1,7 °C 74 % 1028,6 hPa 0,0 l/m² 0 min 0 W/m² 0,0 km/h (0 Bft) 97,44 %
30.04.2026 05:36 5,8 °C 4,4 °C 1,7 °C 74 % 1028,6 hPa 0,0 l/m² 0 min 0 W/m² 0,0 km/h (0 Bft) 97,96 %
30.04.2026 05:38 5,7 °C 4,4 °C 1,7 °C 74 % 1028,6 hPa 0,0 l/m² 0 min 0 W/m² 0,0 km/h (0 Bft) 100,00 %
30.04.2026 05:40 5,7 °C 4,4 °C 1,7 °C 74 % 1028,6 hPa 0,0 l/m² 0 min 0 W/m² 3,2 km/h (1 Bft) 100,00 %
30.04.2026 05:42 5,7 °C 4,4 °C 1,7 °C 74 % 1028,6 hPa 0,0 l/m² 0 min 0 W/m² 0,0 km/h (0 Bft) 100,00 %
30.04.2026 05:44 5,7 °C 4,4 °C 1,7 °C 74 % 1028,6 hPa 0,0 l/m² 0 min 0 W/m² 3,2 km/h (1 Bft) 100,00 %
30.04.2026 05:46 5,6 °C 4,4 °C 1,7 °C 74 % 1028,6 hPa 0,0 l/m² 0 min 0 W/m² 3,2 km/h (1 Bft) 100,00 %
30.04.2026 05:48 5,6 °C 4,4 °C 1,7 °C 74 % 1028,6 hPa 0,0 l/m² 0 min 0 W/m² 3,2 km/h (1 Bft) 100,00 %
30.04.2026 05:50 5,6 °C 4,4 °C 1,7 °C 74 % 1028,5 hPa 0,0 l/m² 0 min 0 W/m² 0,0 km/h (0 Bft) 100,00 %
30.04.2026 05:52 5,6 °C 4,4 °C 1,7 °C 74 % 1028,6 hPa 0,0 l/m² 0 min 0 W/m² 0,0 km/h (0 Bft) 100,00 %
30.04.2026 05:54 5,5 °C 4,4 °C 1,7 °C 74 % 1028,6 hPa 0,0 l/m² 0 min 0 W/m² 0,0 km/h (0 Bft) 97,87 %
30.04.2026 05:56 5,5 °C 4,4 °C 1,7 °C 75 % 1028,7 hPa 0,0 l/m² 0 min 0 W/m² 0,0 km/h (0 Bft) 97,87 %
30.04.2026 05:58 5,5 °C 4,4 °C 1,7 °C 75 % 1028,7 hPa 0,0 l/m² 0 min 0 W/m² 0,0 km/h (0 Bft) 100,00 %
30.04.2026 06:00 5,4 °C 4,4 °C 1,7 °C 75 % 1028,7 hPa 0,0 l/m² 0 min 0 W/m² 3,2 km/h (1 Bft) 97,87 %
30.04.2026 06:02 5,4 °C 4,4 °C 1,7 °C 75 % 1028,8 hPa 0,0 l/m² 0 min 0 W/m² 0,0 km/h (0 Bft) 100,00 %
30.04.2026 06:04 5,4 °C 4,4 °C 1,7 °C 75 % 1028,7 hPa 0,0 l/m² 0 min 0 W/m² 3,2 km/h (1 Bft) 100,00 %
30.04.2026 06:08 5,3 °C 4,4 °C 1,7 °C 75 % 1028,7 hPa 0,0 l/m² 0 min 0 W/m² 3,2 km/h (1 Bft) 100,00 %
30.04.2026 06:10 5,3 °C 4,4 °C 1,7 °C 75 % 1028,8 hPa 0,0 l/m² 0 min 0 W/m² 3,2 km/h (1 Bft) 100,00 %
30.04.2026 06:12 5,3 °C 4,4 °C 1,7 °C 75 % 1028,7 hPa 0,0 l/m² 0 min 1 W/m² 3,2 km/h (1 Bft) 100,00 %
30.04.2026 06:14 5,3 °C 4,4 °C 1,7 °C 75 % 1028,8 hPa 0,0 l/m² 0 min 5 W/m² 3,2 km/h (1 Bft) 57,45 %
30.04.2026 06:16 5,2 °C 4,4 °C 1,7 °C 75 % 1028,8 hPa 0,0 l/m² 0 min 5 W/m² 3,2 km/h (1 Bft) 97,87 %
30.04.2026 06:18 5,2 °C 4,4 °C 1,7 °C 74 % 1028,8 hPa 0,0 l/m² 0 min 5 W/m² 3,2 km/h (1 Bft) 97,87 %
30.04.2026 06:20 5,2 °C 4,4 °C 1,7 °C 74 % 1028,8 hPa 0,0 l/m² 0 min 6 W/m² 3,2 km/h (1 Bft) 97,87 %
30.04.2026 06:22 5,2 °C 4,4 °C 1,7 °C 74 % 1028,8 hPa 0,0 l/m² 0 min 7 W/m² 0,0 km/h (0 Bft) 100,00 %
30.04.2026 06:24 5,2 °C 4,4 °C 1,7 °C 75 % 1028,8 hPa 0,0 l/m² 0 min 7 W/m² 3,2 km/h (1 Bft) 100,00 %
30.04.2026 06:26 5,2 °C 4,4 °C 1,7 °C 74 % 1028,8 hPa 0,0 l/m² 0 min 8 W/m² 3,2 km/h (1 Bft) 97,87 %
30.04.2026 06:28 5,1 °C 4,4 °C 1,7 °C 74 % 1028,8 hPa 0,0 l/m² 0 min 9 W/m² 3,2 km/h (1 Bft) 95,74 %
30.04.2026 06:30 5,1 °C 4,4 °C 1,7 °C 74 % 1028,8 hPa 0,0 l/m² 0 min 9 W/m² 3,2 km/h (1 Bft) 95,12 %
30.04.2026 06:32 5,1 °C 4,4 °C 1,7 °C 74 % 1028,9 hPa 0,0 l/m² 0 min 9 W/m² 3,2 km/h (1 Bft) 96,00 %
30.04.2026 06:34 5,1 °C 4,4 °C 1,7 °C 74 % 1028,8 hPa 0,0 l/m² 0 min 11 W/m² 6,4 km/h (2 Bft) 94,00 %
30.04.2026 06:36 5,1 °C 4,4 °C 1,7 °C 74 % 1028,8 hPa 0,0 l/m² 0 min 11 W/m² 3,2 km/h (1 Bft) 95,65 %
30.04.2026 06:38 5,1 °C 4,4 °C 1,7 °C 74 % 1028,8 hPa 0,0 l/m² 0 min 11 W/m² 0,0 km/h (0 Bft) 97,22 %
30.04.2026 06:40 5,1 °C 4,4 °C 1,7 °C 74 % 1028,9 hPa 0,0 l/m² 0 min 11 W/m² 3,2 km/h (1 Bft) 94,23 %
30.04.2026 06:42 5,1 °C 4,4 °C 1,7 °C 74 % 1028,9 hPa 0,0 l/m² 0 min 12 W/m² 3,2 km/h (1 Bft) 95,74 %
30.04.2026 06:44 5,2 °C 4,4 °C 1,7 °C 74 % 1028,8 hPa 0,0 l/m² 0 min 12 W/m² 0,0 km/h (0 Bft) 96,30 %
30.04.2026 06:46 5,2 °C 4,4 °C 1,7 °C 74 % 1028,9 hPa 0,0 l/m² 0 min 12 W/m² 3,2 km/h (1 Bft) 95,74 %
30.04.2026 06:48 5,2 °C 4,4 °C 1,7 °C 73 % 1028,9 hPa 0,0 l/m² 0 min 12 W/m² 3,2 km/h (1 Bft) 95,74 %
30.04.2026 06:50 5,2 °C 5,0 °C 1,7 °C 73 % 1028,9 hPa 0,0 l/m² 0 min 13 W/m² 6,4 km/h (2 Bft) 93,62 %
30.04.2026 06:52 5,2 °C 5,0 °C 2,2 °C 73 % 1028,9 hPa 0,0 l/m² 0 min 14 W/m² 3,2 km/h (1 Bft) 95,74 %
30.04.2026 06:54 5,2 °C 5,0 °C 2,2 °C 72 % 1028,9 hPa 0,0 l/m² 0 min 14 W/m² 6,4 km/h (2 Bft) 97,83 %
30.04.2026 06:56 5,3 °C 5,6 °C 2,2 °C 72 % 1028,9 hPa 0,0 l/m² 0 min 14 W/m² 3,2 km/h (1 Bft) 97,87 %
30.04.2026 06:58 5,3 °C 5,6 °C 2,2 °C 71 % 1029,0 hPa 0,0 l/m² 0 min 14 W/m² 3,2 km/h (1 Bft) 97,37 %
30.04.2026 07:00 5,4 °C 6,1 °C 2,8 °C 70 % 1029,0 hPa 0,0 l/m² 0 min 16 W/m² 6,4 km/h (2 Bft) 97,87 %
30.04.2026 07:02 5,6 °C 6,1 °C 2,8 °C 69 % 1029,0 hPa 0,0 l/m² 0 min 16 W/m² 6,4 km/h (2 Bft) 100,00 %
30.04.2026 07:04 5,7 °C 6,7 °C 3,3 °C 68 % 1029,1 hPa 0,0 l/m² 0 min 16 W/m² 12,9 km/h (3 Bft) 100,00 %
30.04.2026 07:06 5,9 °C 6,7 °C 3,3 °C 66 % 1029,0 hPa 0,0 l/m² 0 min 17 W/m² 6,4 km/h (2 Bft) 100,00 %
30.04.2026 07:08 6,1 °C 7,2 °C 3,3 °C 65 % 1029,0 hPa 0,0 l/m² 0 min 18 W/m² 16,1 km/h (3 Bft) 100,00 %
30.04.2026 07:10 6,3 °C 7,2 °C 3,9 °C 64 % 1029,0 hPa 0,0 l/m² 0 min 18 W/m² 6,4 km/h (2 Bft) 95,92 %
30.04.2026 07:12 6,6 °C 7,2 °C 3,9 °C 63 % 1029,0 hPa 0,0 l/m² 0 min 18 W/m² 6,4 km/h (2 Bft) 61,70 %
30.04.2026 07:14 6,8 °C 7,2 °C 3,9 °C 62 % 1029,0 hPa 0,0 l/m² 0 min 19 W/m² 6,4 km/h (2 Bft) 100,00 %
30.04.2026 07:16 6,9 °C 7,2 °C 3,9 °C 62 % 1029,0 hPa 0,0 l/m² 0 min 19 W/m² 12,9 km/h (3 Bft) 100,00 %
30.04.2026 07:18 7,1 °C 7,2 °C 3,9 °C 61 % 1029,0 hPa 0,0 l/m² 0 min 20 W/m² 6,4 km/h (2 Bft) 100,00 %
30.04.2026 07:20 7,2 °C 7,2 °C 3,9 °C 60 % 1029,0 hPa 0,0 l/m² 0 min 21 W/m² 16,1 km/h (3 Bft) 100,00 %
30.04.2026 07:22 7,4 °C 7,2 °C 3,9 °C 60 % 1029,1 hPa 0,0 l/m² 0 min 21 W/m² 12,9 km/h (3 Bft) 100,00 %
30.04.2026 07:24 7,5 °C 7,8 °C 3,9 °C 59 % 1029,1 hPa 0,0 l/m² 0 min 22 W/m² 6,4 km/h (2 Bft) 100,00 %
30.04.2026 07:26 7,6 °C 7,8 °C 3,9 °C 59 % 1029,2 hPa 0,0 l/m² 0 min 23 W/m² 12,9 km/h (3 Bft) 100,00 %
30.04.2026 07:28 7,8 °C 7,8 °C 4,4 °C 58 % 1029,1 hPa 0,0 l/m² 0 min 24 W/m² 12,9 km/h (3 Bft) 100,00 %
30.04.2026 07:30 7,9 °C 7,8 °C 4,4 °C 57 % 1029,2 hPa 0,0 l/m² 0 min 25 W/m² 16,1 km/h (3 Bft) 100,00 %
30.04.2026 07:32 8,1 °C 7,8 °C 4,4 °C 57 % 1029,2 hPa 0,0 l/m² 0 min 25 W/m² 9,7 km/h (2 Bft) 96,00 %
30.04.2026 07:34 8,2 °C 7,8 °C 4,4 °C 56 % 1029,2 hPa 0,0 l/m² 0 min 26 W/m² 9,7 km/h (2 Bft) 95,74 %
30.04.2026 07:36 8,3 °C 7,8 °C 4,4 °C 56 % 1029,2 hPa 0,0 l/m² 0 min 27 W/m² 12,9 km/h (3 Bft) 98,00 %
30.04.2026 07:38 8,3 °C 7,8 °C 4,4 °C 56 % 1029,2 hPa 0,0 l/m² 0 min 28 W/m² 9,7 km/h (2 Bft) 94,00 %
30.04.2026 07:40 8,4 °C 8,3 °C 4,4 °C 55 % 1029,2 hPa 0,0 l/m² 0 min 28 W/m² 16,1 km/h (3 Bft) 97,87 %
30.04.2026 07:42 8,5 °C 8,3 °C 4,4 °C 55 % 1029,2 hPa 0,0 l/m² 0 min 30 W/m² 12,9 km/h (3 Bft) 92,11 %
30.04.2026 07:44 8,6 °C 8,3 °C 4,4 °C 55 % 1029,2 hPa 0,0 l/m² 0 min 30 W/m² 6,4 km/h (2 Bft) 95,92 %
30.04.2026 07:46 8,7 °C 8,3 °C 4,4 °C 55 % 1029,2 hPa 0,0 l/m² 0 min 31 W/m² 12,9 km/h (3 Bft) 98,00 %
30.04.2026 07:48 8,8 °C 8,3 °C 5,0 °C 53 % 1029,2 hPa 0,0 l/m² 0 min 32 W/m² 22,5 km/h (4 Bft) 98,00 %
30.04.2026 07:50 8,8 °C 8,3 °C 5,0 °C 53 % 1029,2 hPa 0,0 l/m² 0 min 32 W/m² 25,7 km/h (4 Bft) 97,37 %
30.04.2026 07:52 8,9 °C 8,9 °C 5,0 °C 52 % 1029,2 hPa 0,0 l/m² 0 min 33 W/m² 16,1 km/h (3 Bft) 96,00 %
30.04.2026 07:54 9,0 °C 8,9 °C 5,0 °C 53 % 1029,2 hPa 0,0 l/m² 0 min 33 W/m² 12,9 km/h (3 Bft) 98,00 %
30.04.2026 07:56 9,1 °C 8,9 °C 5,0 °C 53 % 1029,2 hPa 0,0 l/m² 0 min 33 W/m² 16,1 km/h (3 Bft) 97,56 %
30.04.2026 07:58 9,1 °C 8,9 °C 5,0 °C 53 % 1029,2 hPa 0,0 l/m² 0 min 35 W/m² 12,9 km/h (3 Bft) 96,23 %
30.04.2026 08:00 9,2 °C 8,9 °C 5,0 °C 52 % 1029,2 hPa 0,0 l/m² 0 min 36 W/m² 16,1 km/h (3 Bft) 95,65 %
30.04.2026 08:02 9,3 °C 8,9 °C 5,0 °C 52 % 1029,2 hPa 0,0 l/m² 0 min 37 W/m² 12,9 km/h (3 Bft) 95,74 %
30.04.2026 08:04 9,3 °C 8,9 °C 5,0 °C 52 % 1029,2 hPa 0,0 l/m² 0 min 37 W/m² 19,3 km/h (3 Bft) 98,00 %
30.04.2026 08:06 9,4 °C 8,9 °C 5,0 °C 52 % 1029,3 hPa 0,0 l/m² 0 min 39 W/m² 19,3 km/h (3 Bft) 98,00 %
30.04.2026 08:08 9,4 °C 8,9 °C 5,6 °C 51 % 1029,3 hPa 0,0 l/m² 0 min 39 W/m² 16,1 km/h (3 Bft) 94,29 %
30.04.2026 08:10 9,6 °C 9,4 °C 5,6 °C 51 % 1029,2 hPa 0,0 l/m² 0 min 40 W/m² 16,1 km/h (3 Bft) 95,74 %
30.04.2026 08:12 9,6 °C 9,4 °C 5,6 °C 50 % 1029,2 hPa 0,0 l/m² 0 min 41 W/m² 19,3 km/h (3 Bft) 96,23 %
30.04.2026 08:14 9,7 °C 9,4 °C 5,6 °C 49 % 1029,3 hPa 0,0 l/m² 0 min 41 W/m² 19,3 km/h (3 Bft) 93,62 %
30.04.2026 08:16 9,8 °C 9,4 °C 5,6 °C 49 % 1029,3 hPa 0,0 l/m² 0 min 44 W/m² 29,0 km/h (5 Bft) 95,92 %
30.04.2026 08:18 9,8 °C 9,4 °C 5,6 °C 49 % 1029,3 hPa 0,0 l/m² 0 min 46 W/m² 22,5 km/h (4 Bft) 96,30 %
30.04.2026 08:20 9,9 °C 9,4 °C 5,6 °C 49 % 1029,3 hPa 0,0 l/m² 0 min 47 W/m² 25,7 km/h (4 Bft) 93,75 %
30.04.2026 08:22 9,9 °C 9,4 °C 5,6 °C 49 % 1029,3 hPa 0,0 l/m² 0 min 75 W/m² 19,3 km/h (3 Bft) 98,00 %
30.04.2026 08:24 10,0 °C 9,4 °C 5,6 °C 49 % 1029,3 hPa 0,0 l/m² 0 min 77 W/m² 19,3 km/h (3 Bft) 97,87 %
30.04.2026 08:26 10,1 °C 9,4 °C 5,6 °C 49 % 1029,4 hPa 0,0 l/m² 0 min 62 W/m² 19,3 km/h (3 Bft) 94,74 %
30.04.2026 08:28 10,1 °C 10,0 °C 5,6 °C 48 % 1029,3 hPa 0,0 l/m² 2 min 212 W/m² 19,3 km/h (3 Bft) 93,62 %
30.04.2026 08:30 10,2 °C 10,0 °C 6,1 °C 48 % 1029,4 hPa 0,0 l/m² 2 min 174 W/m² 19,3 km/h (3 Bft) 97,87 %
30.04.2026 08:32 10,2 °C 10,0 °C 6,1 °C 49 % 1029,4 hPa 0,0 l/m² 0 min 54 W/m² 16,1 km/h (3 Bft) 95,74 %
30.04.2026 08:34 10,3 °C 10,0 °C 6,1 °C 48 % 1029,3 hPa 0,0 l/m² 0 min 55 W/m² 25,7 km/h (4 Bft) 97,96 %
30.04.2026 08:36 10,3 °C 10,0 °C 6,1 °C 48 % 1029,3 hPa 0,0 l/m² 0 min 88 W/m² 19,3 km/h (3 Bft) 96,00 %
30.04.2026 08:38 10,4 °C 10,0 °C 6,1 °C 48 % 1029,3 hPa 0,0 l/m² 2 min 262 W/m² 19,3 km/h (3 Bft) 96,00 %
30.04.2026 08:40 10,4 °C 10,0 °C 6,1 °C 48 % 1029,2 hPa 0,0 l/m² 2 min 360 W/m² 16,1 km/h (3 Bft) 97,37 %
30.04.2026 08:42 10,6 °C 11,1 °C 6,1 °C 47 % 1029,2 hPa 0,0 l/m² 2 min 360 W/m² 16,1 km/h (3 Bft) 93,62 %
30.04.2026 08:44 10,6 °C 13,3 °C 6,1 °C 47 % 1029,3 hPa 0,0 l/m² 2 min 373 W/m² 12,9 km/h (3 Bft) 98,00 %
30.04.2026 08:46 10,7 °C 14,4 °C 6,7 °C 47 % 1029,2 hPa 0,0 l/m² 2 min 378 W/m² 16,1 km/h (3 Bft) 97,78 %
30.04.2026 08:48 10,8 °C 15,0 °C 6,7 °C 47 % 1029,3 hPa 0,0 l/m² 2 min 380 W/m² 22,5 km/h (4 Bft) 97,87 %
30.04.2026 08:50 10,9 °C 16,1 °C 6,7 °C 47 % 1029,3 hPa 0,0 l/m² 2 min 388 W/m² 16,1 km/h (3 Bft) 98,00 %
30.04.2026 08:52 11,1 °C 17,2 °C 6,7 °C 47 % 1029,3 hPa 0,0 l/m² 2 min 390 W/m² 9,7 km/h (2 Bft) 97,96 %
30.04.2026 08:54 11,3 °C 17,2 °C 6,7 °C 47 % 1029,3 hPa 0,0 l/m² 2 min 397 W/m² 12,9 km/h (3 Bft) 97,37 %
30.04.2026 08:56 11,4 °C 17,2 °C 6,7 °C 47 % 1029,2 hPa 0,0 l/m² 2 min 403 W/m² 16,1 km/h (3 Bft) 97,87 %
30.04.2026 08:58 11,6 °C 17,8 °C 7,2 °C 46 % 1029,3 hPa 0,0 l/m² 2 min 411 W/m² 16,1 km/h (3 Bft) 97,87 %
30.04.2026 09:00 11,8 °C 17,8 °C 7,8 °C 45 % 1029,3 hPa 0,0 l/m² 2 min 417 W/m² 25,7 km/h (4 Bft) 97,87 %
30.04.2026 09:02 11,9 °C 17,8 °C 8,3 °C 45 % 1029,2 hPa 0,0 l/m² 2 min 424 W/m² 12,9 km/h (3 Bft) 97,87 %
30.04.2026 09:04 12,0 °C 18,9 °C 8,9 °C 46 % 1029,2 hPa 0,0 l/m² 2 min 431 W/m² 16,1 km/h (3 Bft) 97,87 %
30.04.2026 09:06 12,1 °C 18,3 °C 9,4 °C 44 % 1029,3 hPa 0,0 l/m² 2 min 435 W/m² 19,3 km/h (3 Bft) 97,87 %
30.04.2026 09:08 12,2 °C 18,3 °C 10,0 °C 44 % 1029,3 hPa 0,0 l/m² 2 min 436 W/m² 16,1 km/h (3 Bft) 97,96 %
30.04.2026 09:10 12,3 °C 18,9 °C 10,0 °C 44 % 1029,3 hPa 0,0 l/m² 2 min 438 W/m² 32,2 km/h (5 Bft) 96,23 %
30.04.2026 09:12 12,4 °C 17,8 °C 10,6 °C 43 % 1029,2 hPa 0,0 l/m² 2 min 445 W/m² 29,0 km/h (5 Bft) 94,74 %
30.04.2026 09:14 12,5 °C 18,3 °C 10,6 °C 44 % 1029,2 hPa 0,0 l/m² 2 min 453 W/m² 16,1 km/h (3 Bft) 97,87 %
30.04.2026 09:16 12,6 °C 18,9 °C 11,1 °C 43 % 1029,2 hPa 0,0 l/m² 2 min 463 W/m² 16,1 km/h (3 Bft) 98,21 %
30.04.2026 09:18 12,7 °C 18,9 °C 11,1 °C 44 % 1029,2 hPa 0,0 l/m² 2 min 468 W/m² 19,3 km/h (3 Bft) 95,74 %
30.04.2026 09:20 12,7 °C 18,9 °C 11,1 °C 43 % 1029,1 hPa 0,0 l/m² 2 min 478 W/m² 22,5 km/h (4 Bft) 97,83 %
30.04.2026 09:22 12,8 °C 18,9 °C 11,1 °C 43 % 1029,2 hPa 0,0 l/m² 2 min 482 W/m² 19,3 km/h (3 Bft) 97,87 %
30.04.2026 09:24 12,9 °C 19,4 °C 11,7 °C 43 % 1029,2 hPa 0,0 l/m² 2 min 487 W/m² 19,3 km/h (3 Bft) 97,87 %
30.04.2026 09:26 12,9 °C 18,3 °C 11,7 °C 42 % 1029,3 hPa 0,0 l/m² 2 min 483 W/m² 22,5 km/h (4 Bft) 97,87 %
30.04.2026 09:28 13,1 °C 18,9 °C 11,7 °C 43 % 1029,2 hPa 0,0 l/m² 2 min 491 W/m² 22,5 km/h (4 Bft) 97,87 %
30.04.2026 09:30 13,1 °C 18,3 °C 11,7 °C 42 % 1029,2 hPa 0,0 l/m² 2 min 502 W/m² 19,3 km/h (3 Bft) 95,74 %
30.04.2026 09:32 13,1 °C 17,8 °C 11,7 °C 41 % 1029,2 hPa 0,0 l/m² 2 min 507 W/m² 22,5 km/h (4 Bft) 97,37 %
30.04.2026 09:34 13,2 °C 18,9 °C 11,7 °C 41 % 1029,2 hPa 0,0 l/m² 2 min 518 W/m² 16,1 km/h (3 Bft) 97,87 %
30.04.2026 09:36 13,2 °C 18,9 °C 11,7 °C 41 % 1029,2 hPa 0,0 l/m² 2 min 518 W/m² 19,3 km/h (3 Bft) 97,87 %
30.04.2026 09:38 13,3 °C 18,9 °C 11,7 °C 41 % 1029,1 hPa 0,0 l/m² 2 min 517 W/m² 16,1 km/h (3 Bft) 98,00 %
30.04.2026 09:40 13,3 °C 18,3 °C 11,7 °C 41 % 1029,1 hPa 0,0 l/m² 2 min 528 W/m² 19,3 km/h (3 Bft) 95,65 %
30.04.2026 09:42 13,4 °C 19,4 °C 11,7 °C 41 % 1029,1 hPa 0,0 l/m² 2 min 529 W/m² 16,1 km/h (3 Bft) 98,00 %
30.04.2026 09:44 13,4 °C 18,9 °C 11,7 °C 41 % 1029,1 hPa 0,0 l/m² 2 min 518 W/m² 19,3 km/h (3 Bft) 96,00 %
30.04.2026 09:46 13,5 °C 19,4 °C 11,1 °C 41 % 1029,1 hPa 0,0 l/m² 2 min 534 W/m² 12,9 km/h (3 Bft) 97,87 %
30.04.2026 09:48 13,5 °C 19,4 °C 10,6 °C 41 % 1029,2 hPa 0,0 l/m² 2 min 551 W/m² 22,5 km/h (4 Bft) 97,87 %
30.04.2026 09:50 13,6 °C 19,4 °C 10,6 °C 41 % 1029,1 hPa 0,0 l/m² 2 min 555 W/m² 19,3 km/h (3 Bft) 97,87 %
30.04.2026 09:52 13,6 °C 18,9 °C 10,0 °C 40 % 1029,1 hPa 0,0 l/m² 2 min 562 W/m² 16,1 km/h (3 Bft) 97,87 %
30.04.2026 09:54 13,6 °C 19,4 °C 9,4 °C 40 % 1029,1 hPa 0,0 l/m² 2 min 571 W/m² 16,1 km/h (3 Bft) 97,87 %
30.04.2026 09:56 13,7 °C 19,4 °C 9,4 °C 41 % 1029,1 hPa 0,0 l/m² 2 min 576 W/m² 22,5 km/h (4 Bft) 97,37 %
30.04.2026 09:58 13,7 °C 18,3 °C 9,4 °C 39 % 1029,2 hPa 0,0 l/m² 2 min 578 W/m² 22,5 km/h (4 Bft) 97,87 %
30.04.2026 10:00 13,7 °C 18,3 °C 9,4 °C 39 % 1029,1 hPa 0,0 l/m² 2 min 575 W/m² 29,0 km/h (5 Bft) 97,83 %
30.04.2026 10:02 13,7 °C 17,8 °C 9,4 °C 39 % 1029,2 hPa 0,0 l/m² 2 min 574 W/m² 32,2 km/h (5 Bft) 96,23 %
30.04.2026 10:04 13,8 °C 17,8 °C 9,4 °C 39 % 1029,2 hPa 0,0 l/m² 2 min 592 W/m² 19,3 km/h (3 Bft) 94,74 %
30.04.2026 10:06 13,8 °C 18,3 °C 9,4 °C 40 % 1029,2 hPa 0,0 l/m² 2 min 600 W/m² 16,1 km/h (3 Bft) 96,00 %
30.04.2026 10:08 13,9 °C 18,3 °C 9,4 °C 40 % 1029,2 hPa 0,0 l/m² 2 min 598 W/m² 16,1 km/h (3 Bft) 95,74 %
30.04.2026 10:10 13,9 °C 17,8 °C 9,4 °C 40 % 1029,2 hPa 0,0 l/m² 2 min 600 W/m² 16,1 km/h (3 Bft) 93,62 %
30.04.2026 10:12 14,0 °C 17,2 °C 9,4 °C 40 % 1029,1 hPa 0,0 l/m² 2 min 599 W/m² 35,4 km/h (5 Bft) 92,45 %
30.04.2026 10:14 14,1 °C 16,7 °C 9,4 °C 40 % 1029,2 hPa 0,0 l/m² 2 min 610 W/m² 12,9 km/h (3 Bft) 92,11 %
30.04.2026 10:16 14,2 °C 16,7 °C 9,4 °C 40 % 1029,2 hPa 0,0 l/m² 2 min 605 W/m² 12,9 km/h (3 Bft) 94,00 %
30.04.2026 10:18 14,2 °C 16,7 °C 9,4 °C 39 % 1029,2 hPa 0,0 l/m² 2 min 626 W/m² 16,1 km/h (3 Bft) 89,13 %
30.04.2026 10:20 14,3 °C 16,1 °C 10,0 °C 39 % 1029,1 hPa 0,0 l/m² 2 min 627 W/m² 22,5 km/h (4 Bft) 90,00 %
30.04.2026 10:22 14,3 °C 16,7 °C 10,0 °C 39 % 1029,1 hPa 0,0 l/m² 2 min 610 W/m² 19,3 km/h (3 Bft) 93,62 %
30.04.2026 10:24 14,3 °C 16,1 °C 10,0 °C 38 % 1029,1 hPa 0,0 l/m² 2 min 645 W/m² 25,7 km/h (4 Bft) 95,74 %
30.04.2026 10:26 14,3 °C 16,7 °C 11,1 °C 38 % 1029,1 hPa 0,0 l/m² 2 min 636 W/m² 25,7 km/h (4 Bft) 91,49 %
30.04.2026 10:28 14,3 °C 16,1 °C 11,7 °C 39 % 1029,1 hPa 0,0 l/m² 2 min 634 W/m² 16,1 km/h (3 Bft) 93,62 %
30.04.2026 10:30 14,3 °C 16,1 °C 11,7 °C 38 % 1029,1 hPa 0,0 l/m² 2 min 659 W/m² 29,0 km/h (5 Bft) 93,62 %
30.04.2026 10:32 14,3 °C 16,1 °C 12,2 °C 38 % 1029,0 hPa 0,0 l/m² 2 min 664 W/m² 16,1 km/h (3 Bft) 93,62 %
30.04.2026 10:34 14,3 °C 16,7 °C 12,2 °C 38 % 1029,0 hPa 0,0 l/m² 2 min 668 W/m² 16,1 km/h (3 Bft) 89,13 %
30.04.2026 10:36 14,4 °C 17,2 °C 12,2 °C 39 % 1029,0 hPa 0,0 l/m² 2 min 636 W/m² 19,3 km/h (3 Bft) 91,49 %
30.04.2026 10:38 14,5 °C 16,7 °C 11,7 °C 37 % 1029,0 hPa 0,0 l/m² 2 min 685 W/m² 22,5 km/h (4 Bft) 93,62 %
30.04.2026 10:40 14,6 °C 16,7 °C 11,7 °C 38 % 1029,0 hPa 0,0 l/m² 2 min 684 W/m² 19,3 km/h (3 Bft) 92,00 %
30.04.2026 10:42 14,6 °C 17,2 °C 11,7 °C 37 % 1028,9 hPa 0,0 l/m² 2 min 687 W/m² 16,1 km/h (3 Bft) 95,74 %
30.04.2026 10:44 14,7 °C 17,2 °C 11,7 °C 38 % 1029,0 hPa 0,0 l/m² 2 min 694 W/m² 16,1 km/h (3 Bft) 95,74 %
30.04.2026 10:46 14,8 °C 17,2 °C 12,2 °C 38 % 1029,0 hPa 0,0 l/m² 2 min 692 W/m² 29,0 km/h (5 Bft) 93,62 %
30.04.2026 10:48 14,9 °C 17,2 °C 12,8 °C 38 % 1028,9 hPa 0,0 l/m² 2 min 699 W/m² 12,9 km/h (3 Bft) 95,74 %
30.04.2026 10:50 15,0 °C 17,2 °C 12,2 °C 37 % 1028,9 hPa 0,0 l/m² 2 min 688 W/m² 22,5 km/h (4 Bft) 94,29 %
30.04.2026 10:52 15,1 °C 17,8 °C 12,2 °C 37 % 1029,0 hPa 0,0 l/m² 2 min 699 W/m² 12,9 km/h (3 Bft) 94,23 %
30.04.2026 10:54 15,2 °C 17,8 °C 11,7 °C 37 % 1028,9 hPa 0,0 l/m² 2 min 698 W/m² 19,3 km/h (3 Bft) 95,45 %
30.04.2026 10:56 15,2 °C 17,8 °C 11,1 °C 35 % 1028,9 hPa 0,0 l/m² 2 min 714 W/m² 16,1 km/h (3 Bft) 97,87 %
30.04.2026 10:58 15,3 °C 18,3 °C 11,1 °C 35 % 1028,9 hPa 0,0 l/m² 2 min 719 W/m² 19,3 km/h (3 Bft) 98,00 %
30.04.2026 11:00 15,3 °C 18,3 °C 10,6 °C 36 % 1028,9 hPa 0,0 l/m² 2 min 691 W/m² 19,3 km/h (3 Bft) 97,87 %
30.04.2026 11:02 15,3 °C 18,9 °C 10,6 °C 36 % 1028,8 hPa 0,0 l/m² 2 min 722 W/m² 16,1 km/h (3 Bft) 98,00 %
30.04.2026 11:04 15,3 °C 18,9 °C 11,1 °C 36 % 1028,9 hPa 0,0 l/m² 2 min 730 W/m² 19,3 km/h (3 Bft) 97,87 %
30.04.2026 11:06 15,4 °C 18,3 °C 11,1 °C 36 % 1028,9 hPa 0,0 l/m² 2 min 733 W/m² 22,5 km/h (4 Bft) 97,83 %
30.04.2026 11:08 15,4 °C 17,8 °C 11,1 °C 36 % 1028,8 hPa 0,0 l/m² 2 min 737 W/m² 16,1 km/h (3 Bft) 97,87 %
30.04.2026 11:10 15,5 °C 17,2 °C 11,1 °C 35 % 1028,8 hPa 0,0 l/m² 2 min 738 W/m² 19,3 km/h (3 Bft) 95,74 %
30.04.2026 11:12 15,6 °C 18,3 °C 11,1 °C 35 % 1028,8 hPa 0,0 l/m² 2 min 743 W/m² 16,1 km/h (3 Bft) 95,74 %
30.04.2026 11:14 15,7 °C 18,3 °C 11,1 °C 34 % 1028,8 hPa 0,0 l/m² 2 min 746 W/m² 22,5 km/h (4 Bft) 97,87 %
30.04.2026 11:16 15,7 °C 19,4 °C 11,1 °C 34 % 1028,6 hPa 0,0 l/m² 2 min 753 W/m² 19,3 km/h (3 Bft) 97,87 %
30.04.2026 11:18 15,8 °C 20,6 °C 11,7 °C 34 % 1028,7 hPa 0,0 l/m² 2 min 753 W/m² 19,3 km/h (3 Bft) 96,00 %
30.04.2026 11:20 15,8 °C 20,0 °C 11,7 °C 34 % 1028,6 hPa 0,0 l/m² 2 min 758 W/m² 16,1 km/h (3 Bft) 100,00 %
30.04.2026 11:22 15,9 °C 20,6 °C 11,7 °C 35 % 1028,6 hPa 0,0 l/m² 2 min 753 W/m² 19,3 km/h (3 Bft) 100,00 %
30.04.2026 11:24 16,0 °C 20,0 °C 12,2 °C 35 % 1028,6 hPa 0,0 l/m² 2 min 764 W/m² 19,3 km/h (3 Bft) 100,00 %
30.04.2026 11:26 16,1 °C 19,4 °C 12,8 °C 34 % 1028,5 hPa 0,0 l/m² 2 min 769 W/m² 19,3 km/h (3 Bft) 96,23 %
30.04.2026 11:28 16,1 °C 18,9 °C 12,8 °C 34 % 1028,6 hPa 0,0 l/m² 2 min 771 W/m² 35,4 km/h (5 Bft) 100,00 %
30.04.2026 11:30 16,1 °C 18,9 °C 12,8 °C 33 % 1028,5 hPa 0,0 l/m² 2 min 773 W/m² 19,3 km/h (3 Bft) 100,00 %
30.04.2026 11:32 16,1 °C 18,3 °C 12,8 °C 34 % 1028,4 hPa 0,0 l/m² 2 min 777 W/m² 16,1 km/h (3 Bft) 97,37 %
30.04.2026 11:34 16,1 °C 18,9 °C 13,3 °C 35 % 1028,3 hPa 0,0 l/m² 2 min 782 W/m² 19,3 km/h (3 Bft) 100,00 %
30.04.2026 11:36 16,2 °C 18,9 °C 13,3 °C 34 % 1028,3 hPa 0,0 l/m² 2 min 782 W/m² 25,7 km/h (4 Bft) 100,00 %
30.04.2026 11:38 16,2 °C 20,6 °C 12,8 °C 34 % 1028,3 hPa 0,0 l/m² 2 min 792 W/m² 19,3 km/h (3 Bft) 100,00 %
30.04.2026 11:40 16,3 °C 20,0 °C 12,8 °C 34 % 1028,4 hPa 0,0 l/m² 2 min 787 W/m² 19,3 km/h (3 Bft) 100,00 %
30.04.2026 11:42 16,4 °C 19,4 °C 12,8 °C 34 % 1028,3 hPa 0,0 l/m² 2 min 787 W/m² 16,1 km/h (3 Bft) 100,00 %
30.04.2026 11:44 16,6 °C 19,4 °C 12,8 °C 34 % 1028,3 hPa 0,0 l/m² 2 min 784 W/m² 12,9 km/h (3 Bft) 100,00 %
30.04.2026 11:46 16,6 °C 19,4 °C 12,8 °C 33 % 1028,3 hPa 0,0 l/m² 2 min 797 W/m² 22,5 km/h (4 Bft) 100,00 %
30.04.2026 11:48 16,7 °C 18,9 °C 12,8 °C 33 % 1028,3 hPa 0,0 l/m² 2 min 802 W/m² 29,0 km/h (5 Bft) 100,00 %
30.04.2026 11:50 16,7 °C 18,9 °C 12,8 °C 32 % 1028,3 hPa 0,0 l/m² 2 min 802 W/m² 22,5 km/h (4 Bft) 100,00 %
30.04.2026 11:52 16,8 °C 20,0 °C 13,3 °C 33 % 1028,3 hPa 0,0 l/m² 2 min 807 W/m² 19,3 km/h (3 Bft) 100,00 %
30.04.2026 11:54 16,8 °C 20,6 °C 13,9 °C 33 % 1028,3 hPa 0,0 l/m² 2 min 812 W/m² 16,1 km/h (3 Bft) 100,00 %
30.04.2026 11:56 16,9 °C 20,6 °C 14,4 °C 32 % 1028,3 hPa 0,0 l/m² 2 min 813 W/m² 19,3 km/h (3 Bft) 97,62 %
30.04.2026 11:58 16,9 °C 21,1 °C 13,9 °C 32 % 1028,3 hPa 0,0 l/m² 2 min 815 W/m² 19,3 km/h (3 Bft) 97,87 %
30.04.2026 12:00 16,9 °C 22,2 °C 14,4 °C 32 % 1028,3 hPa 0,0 l/m² 2 min 818 W/m² 38,6 km/h (5 Bft) 100,00 %
30.04.2026 12:02 17,0 °C 22,8 °C 15,0 °C 32 % 1028,3 hPa 0,0 l/m² 2 min 818 W/m² 19,3 km/h (3 Bft) 100,00 %
30.04.2026 12:04 17,1 °C 23,9 °C 15,6 °C 33 % 1028,3 hPa 0,0 l/m² 2 min 819 W/m² 16,1 km/h (3 Bft) 100,00 %
30.04.2026 12:08 17,2 °C 23,9 °C 16,7 °C 33 % 1028,3 hPa 0,0 l/m² 2 min 823 W/m² 25,7 km/h (4 Bft) 100,00 %
30.04.2026 12:10 17,3 °C 23,9 °C 17,2 °C 32 % 1028,3 hPa 0,0 l/m² 2 min 828 W/m² 22,5 km/h (4 Bft) 97,87 %
30.04.2026 12:12 17,4 °C 24,4 °C 17,2 °C 33 % 1028,3 hPa 0,0 l/m² 2 min 831 W/m² 19,3 km/h (3 Bft) 100,00 %
30.04.2026 12:14 17,6 °C 25,0 °C 16,7 °C 32 % 1028,2 hPa 0,0 l/m² 2 min 833 W/m² 16,1 km/h (3 Bft) 100,00 %
30.04.2026 12:16 17,7 °C 26,7 °C 16,7 °C 32 % 1028,2 hPa 0,0 l/m² 2 min 835 W/m² 19,3 km/h (3 Bft) 100,00 %
30.04.2026 12:18 17,8 °C 26,1 °C 17,2 °C 32 % 1028,2 hPa 0,0 l/m² 2 min 837 W/m² 16,1 km/h (3 Bft) 98,00 %
30.04.2026 12:20 17,9 °C 25,6 °C 17,8 °C 32 % 1028,2 hPa 0,0 l/m² 2 min 839 W/m² 32,2 km/h (5 Bft) 95,74 %
30.04.2026 12:22 18,0 °C 25,0 °C 18,9 °C 31 % 1028,1 hPa 0,0 l/m² 2 min 843 W/m² 16,1 km/h (3 Bft) 97,56 %
30.04.2026 12:24 18,1 °C 24,4 °C 19,4 °C 31 % 1028,2 hPa 0,0 l/m² 2 min 843 W/m² 22,5 km/h (4 Bft) 98,00 %
30.04.2026 12:26 18,1 °C 23,9 °C 19,4 °C 31 % 1028,2 hPa 0,0 l/m² 2 min 845 W/m² 25,7 km/h (4 Bft) 97,87 %
30.04.2026 12:28 18,1 °C 25,0 °C 20,0 °C 31 % 1028,2 hPa 0,0 l/m² 2 min 849 W/m² 19,3 km/h (3 Bft) 97,87 %
30.04.2026 12:30 18,1 °C 25,0 °C 20,6 °C 31 % 1028,2 hPa 0,0 l/m² 2 min 851 W/m² 19,3 km/h (3 Bft) 98,00 %
30.04.2026 12:32 18,1 °C 25,0 °C 20,6 °C 31 % 1028,2 hPa 0,0 l/m² 2 min 850 W/m² 19,3 km/h (3 Bft) 93,88 %
30.04.2026 12:34 18,2 °C 25,6 °C 21,1 °C 32 % 1028,1 hPa 0,0 l/m² 2 min 849 W/m² 9,7 km/h (2 Bft) 97,87 %
30.04.2026 12:36 18,2 °C 25,6 °C 21,1 °C 31 % 1028,1 hPa 0,0 l/m² 2 min 853 W/m² 19,3 km/h (3 Bft) 100,00 %
30.04.2026 12:38 18,3 °C 26,1 °C 21,1 °C 31 % 1028,1 hPa 0,0 l/m² 2 min 857 W/m² 16,1 km/h (3 Bft) 97,87 %
30.04.2026 12:40 18,4 °C 26,1 °C 21,7 °C 32 % 1028,0 hPa 0,0 l/m² 2 min 857 W/m² 16,1 km/h (3 Bft) 94,44 %
30.04.2026 12:42 18,5 °C 25,6 °C 21,1 °C 30 % 1028,0 hPa 0,0 l/m² 2 min 861 W/m² 22,5 km/h (4 Bft) 93,62 %
30.04.2026 12:44 18,6 °C 24,4 °C 20,6 °C 31 % 1028,0 hPa 0,0 l/m² 2 min 862 W/m² 22,5 km/h (4 Bft) 95,74 %
30.04.2026 12:46 18,6 °C 25,0 °C 20,6 °C 30 % 1028,0 hPa 0,0 l/m² 2 min 860 W/m² 16,1 km/h (3 Bft) 95,74 %
30.04.2026 12:48 18,6 °C 25,6 °C 21,1 °C 31 % 1028,0 hPa 0,0 l/m² 2 min 861 W/m² 22,5 km/h (4 Bft) 95,65 %
30.04.2026 12:50 18,6 °C 25,0 °C 21,1 °C 30 % 1027,9 hPa 0,0 l/m² 2 min 863 W/m² 25,7 km/h (4 Bft) 93,62 %
30.04.2026 12:52 18,6 °C 25,0 °C 21,1 °C 30 % 1028,0 hPa 0,0 l/m² 2 min 864 W/m² 19,3 km/h (3 Bft) 95,74 %
30.04.2026 12:54 18,6 °C 25,0 °C 21,1 °C 30 % 1027,9 hPa 0,0 l/m² 2 min 861 W/m² 16,1 km/h (3 Bft) 97,87 %
30.04.2026 12:56 18,6 °C 25,0 °C 21,7 °C 31 % 1027,9 hPa 0,0 l/m² 2 min 863 W/m² 22,5 km/h (4 Bft) 97,87 %
30.04.2026 12:58 18,6 °C 25,6 °C 22,2 °C 31 % 1027,9 hPa 0,0 l/m² 2 min 860 W/m² 16,1 km/h (3 Bft) 97,87 %
30.04.2026 13:00 18,7 °C 25,6 °C 22,2 °C 31 % 1027,9 hPa 0,0 l/m² 2 min 861 W/m² 22,5 km/h (4 Bft) 97,87 %
30.04.2026 13:02 18,8 °C 26,1 °C 21,7 °C 31 % 1027,9 hPa 0,0 l/m² 2 min 866 W/m² 16,1 km/h (3 Bft) 95,92 %
30.04.2026 13:04 18,9 °C 26,1 °C 22,2 °C 32 % 1027,8 hPa 0,0 l/m² 2 min 870 W/m² 16,1 km/h (3 Bft) 97,87 %
30.04.2026 13:06 19,1 °C 27,2 °C 22,2 °C 31 % 1027,8 hPa 0,0 l/m² 2 min 871 W/m² 19,3 km/h (3 Bft) 95,74 %
30.04.2026 13:08 19,1 °C 26,1 °C 22,2 °C 31 % 1027,8 hPa 0,0 l/m² 2 min 870 W/m² 22,5 km/h (4 Bft) 95,56 %
30.04.2026 13:10 19,1 °C 26,1 °C 22,8 °C 31 % 1027,7 hPa 0,0 l/m² 2 min 873 W/m² 12,9 km/h (3 Bft) 100,00 %
30.04.2026 13:12 19,2 °C 26,1 °C 23,3 °C 31 % 1027,7 hPa 0,0 l/m² 2 min 872 W/m² 19,3 km/h (3 Bft) 96,00 %
30.04.2026 13:14 19,2 °C 26,1 °C 22,8 °C 30 % 1027,7 hPa 0,0 l/m² 2 min 872 W/m² 12,9 km/h (3 Bft) 98,15 %
30.04.2026 13:16 19,3 °C 28,3 °C 23,9 °C 31 % 1027,6 hPa 0,0 l/m² 2 min 870 W/m² 12,9 km/h (3 Bft) 97,87 %
30.04.2026 13:18 19,6 °C 27,8 °C 24,4 °C 31 % 1027,6 hPa 0,0 l/m² 2 min 875 W/m² 16,1 km/h (3 Bft) 97,87 %
30.04.2026 13:20 19,7 °C 27,2 °C 23,3 °C 30 % 1027,5 hPa 0,0 l/m² 2 min 875 W/m² 22,5 km/h (4 Bft) 97,14 %
30.04.2026 13:22 19,8 °C 27,2 °C 23,9 °C 30 % 1027,5 hPa 0,0 l/m² 2 min 877 W/m² 19,3 km/h (3 Bft) 97,96 %
30.04.2026 13:24 19,8 °C 27,2 °C 22,2 °C 29 % 1027,6 hPa 0,0 l/m² 2 min 880 W/m² 19,3 km/h (3 Bft) 94,00 %
30.04.2026 13:26 19,9 °C 27,8 °C 23,3 °C 30 % 1027,6 hPa 0,0 l/m² 2 min 876 W/m² 12,9 km/h (3 Bft) 98,00 %
30.04.2026 13:28 20,0 °C 28,3 °C 22,8 °C 29 % 1027,6 hPa 0,0 l/m² 2 min 877 W/m² 19,3 km/h (3 Bft) 97,87 %
30.04.2026 13:30 20,1 °C 28,3 °C 23,3 °C 29 % 1027,6 hPa 0,0 l/m² 2 min 877 W/m² 22,5 km/h (4 Bft) 100,00 %
30.04.2026 13:32 20,1 °C 27,2 °C 23,3 °C 29 % 1027,7 hPa 0,0 l/m² 2 min 878 W/m² 25,7 km/h (4 Bft) 100,00 %
30.04.2026 13:34 20,2 °C 27,2 °C 23,9 °C 29 % 1027,6 hPa 0,0 l/m² 2 min 877 W/m² 22,5 km/h (4 Bft) 100,00 %
30.04.2026 13:36 20,2 °C 27,8 °C 23,9 °C 29 % 1027,7 hPa 0,0 l/m² 2 min 877 W/m² 12,9 km/h (3 Bft) 97,37 %
30.04.2026 13:38 20,3 °C 27,2 °C 23,9 °C 29 % 1027,6 hPa 0,0 l/m² 2 min 878 W/m² 29,0 km/h (5 Bft) 97,92 %
30.04.2026 13:40 20,3 °C 27,2 °C 23,3 °C 29 % 1027,6 hPa 0,0 l/m² 2 min 876 W/m² 19,3 km/h (3 Bft) 100,00 %
30.04.2026 13:42 20,3 °C 27,2 °C 22,2 °C 29 % 1027,6 hPa 0,0 l/m² 2 min 875 W/m² 19,3 km/h (3 Bft) 100,00 %
30.04.2026 13:44 20,3 °C 27,2 °C 21,1 °C 29 % 1027,6 hPa 0,0 l/m² 2 min 880 W/m² 19,3 km/h (3 Bft) 98,00 %
30.04.2026 13:46 20,3 °C 27,2 °C 20,0 °C 29 % 1027,6 hPa 0,0 l/m² 2 min 876 W/m² 19,3 km/h (3 Bft) 100,00 %
30.04.2026 13:48 20,4 °C 27,8 °C 19,4 °C 29 % 1027,5 hPa 0,0 l/m² 2 min 877 W/m² 25,7 km/h (4 Bft) 100,00 %
30.04.2026 13:50 20,4 °C 27,2 °C 18,9 °C 28 % 1027,6 hPa 0,0 l/m² 2 min 876 W/m² 19,3 km/h (3 Bft) 100,00 %
30.04.2026 13:52 20,4 °C 27,2 °C 18,3 °C 29 % 1027,6 hPa 0,0 l/m² 2 min 877 W/m² 12,9 km/h (3 Bft) 97,37 %
30.04.2026 13:54 20,4 °C 27,2 °C 17,8 °C 28 % 1027,5 hPa 0,0 l/m² 2 min 875 W/m² 16,1 km/h (3 Bft) 100,00 %
30.04.2026 13:56 20,4 °C 27,2 °C 17,8 °C 28 % 1027,5 hPa 0,0 l/m² 2 min 874 W/m² 22,5 km/h (4 Bft) 100,00 %
30.04.2026 13:58 20,5 °C 27,2 °C 17,8 °C 29 % 1027,5 hPa 0,0 l/m² 2 min 875 W/m² 25,7 km/h (4 Bft) 100,00 %
30.04.2026 14:00 20,5 °C 27,2 °C 17,8 °C 28 % 1027,4 hPa 0,0 l/m² 2 min 875 W/m² 22,5 km/h (4 Bft) 100,00 %
30.04.2026 14:02 20,6 °C 26,7 °C 17,2 °C 28 % 1027,4 hPa 0,0 l/m² 2 min 875 W/m² 29,0 km/h (5 Bft) 100,00 %
30.04.2026 14:04 20,6 °C 27,2 °C 17,2 °C 27 % 1027,3 hPa 0,0 l/m² 2 min 872 W/m² 22,5 km/h (4 Bft) 100,00 %
30.04.2026 14:06 20,7 °C 26,7 °C 17,2 °C 28 % 1027,3 hPa 0,0 l/m² 2 min 872 W/m² 16,1 km/h (3 Bft) 98,00 %
30.04.2026 14:08 20,7 °C 26,7 °C 17,2 °C 28 % 1027,3 hPa 0,0 l/m² 2 min 869 W/m² 22,5 km/h (4 Bft) 100,00 %
30.04.2026 14:10 20,7 °C 27,8 °C 17,2 °C 29 % 1027,4 hPa 0,0 l/m² 2 min 866 W/m² 16,1 km/h (3 Bft) 100,00 %
30.04.2026 14:12 20,8 °C 27,8 °C 17,2 °C 28 % 1027,3 hPa 0,0 l/m² 2 min 866 W/m² 19,3 km/h (3 Bft) 100,00 %
30.04.2026 14:14 20,9 °C 28,9 °C 17,2 °C 28 % 1027,3 hPa 0,0 l/m² 2 min 866 W/m² 12,9 km/h (3 Bft) 95,65 %
30.04.2026 14:16 20,9 °C 27,8 °C 17,2 °C 28 % 1027,3 hPa 0,0 l/m² 2 min 866 W/m² 22,5 km/h (4 Bft) 97,87 %
30.04.2026 14:18 20,9 °C 27,8 °C 17,2 °C 28 % 1027,2 hPa 0,0 l/m² 2 min 863 W/m² 19,3 km/h (3 Bft) 97,87 %
30.04.2026 14:20 21,0 °C 27,8 °C 17,2 °C 29 % 1027,2 hPa 0,0 l/m² 2 min 862 W/m² 16,1 km/h (3 Bft) 97,87 %
30.04.2026 14:22 21,1 °C 27,8 °C 17,2 °C 29 % 1027,2 hPa 0,0 l/m² 2 min 861 W/m² 22,5 km/h (4 Bft) 97,87 %
30.04.2026 14:24 21,1 °C 27,8 °C 17,2 °C 28 % 1027,1 hPa 0,0 l/m² 2 min 860 W/m² 16,1 km/h (3 Bft) 98,00 %
30.04.2026 14:26 21,1 °C 27,2 °C 17,2 °C 28 % 1027,1 hPa 0,0 l/m² 2 min 857 W/m² 29,0 km/h (5 Bft) 97,87 %
30.04.2026 14:28 21,1 °C 27,2 °C 17,2 °C 28 % 1027,0 hPa 0,0 l/m² 2 min 856 W/m² 22,5 km/h (4 Bft) 97,87 %
30.04.2026 14:30 21,1 °C 27,2 °C 17,2 °C 28 % 1027,0 hPa 0,0 l/m² 2 min 856 W/m² 16,1 km/h (3 Bft) 95,92 %
30.04.2026 14:32 21,2 °C 27,8 °C 17,2 °C 28 % 1027,0 hPa 0,0 l/m² 2 min 854 W/m² 19,3 km/h (3 Bft) 97,87 %
30.04.2026 14:34 21,3 °C 28,3 °C 17,2 °C 28 % 1027,0 hPa 0,0 l/m² 2 min 853 W/m² 12,9 km/h (3 Bft) 97,87 %
30.04.2026 14:36 21,4 °C 28,9 °C 17,2 °C 29 % 1027,0 hPa 0,0 l/m² 2 min 850 W/m² 12,9 km/h (3 Bft) 97,37 %
30.04.2026 14:38 21,4 °C 28,3 °C 17,2 °C 29 % 1027,0 hPa 0,0 l/m² 2 min 848 W/m² 19,3 km/h (3 Bft) 97,87 %
30.04.2026 14:40 21,4 °C 27,8 °C 17,2 °C 28 % 1026,9 hPa 0,0 l/m² 2 min 847 W/m² 19,3 km/h (3 Bft) 96,36 %
30.04.2026 14:42 21,4 °C 27,2 °C 17,2 °C 28 % 1026,9 hPa 0,0 l/m² 2 min 846 W/m² 25,7 km/h (4 Bft) 97,87 %
30.04.2026 14:44 21,4 °C 26,7 °C 17,2 °C 28 % 1027,0 hPa 0,0 l/m² 2 min 843 W/m² 22,5 km/h (4 Bft) 97,56 %
30.04.2026 14:46 21,3 °C 26,7 °C 17,2 °C 28 % 1026,9 hPa 0,0 l/m² 2 min 839 W/m² 25,7 km/h (4 Bft) 95,65 %
30.04.2026 14:48 21,3 °C 26,7 °C 17,2 °C 28 % 1026,9 hPa 0,0 l/m² 2 min 839 W/m² 19,3 km/h (3 Bft) 97,87 %
30.04.2026 14:50 21,3 °C 26,7 °C 17,2 °C 29 % 1026,8 hPa 0,0 l/m² 2 min 835 W/m² 22,5 km/h (4 Bft) 97,87 %
30.04.2026 14:52 21,3 °C 26,7 °C 17,2 °C 29 % 1026,8 hPa 0,0 l/m² 2 min 835 W/m² 16,1 km/h (3 Bft) 97,87 %
30.04.2026 14:54 21,3 °C 27,2 °C 17,8 °C 29 % 1026,8 hPa 0,0 l/m² 2 min 833 W/m² 16,1 km/h (3 Bft) 97,87 %
30.04.2026 14:56 21,4 °C 27,2 °C 17,8 °C 29 % 1026,8 hPa 0,0 l/m² 2 min 830 W/m² 19,3 km/h (3 Bft) 97,87 %
30.04.2026 14:58 21,4 °C 27,8 °C 17,8 °C 29 % 1026,8 hPa 0,0 l/m² 2 min 828 W/m² 19,3 km/h (3 Bft) 97,87 %
30.04.2026 15:00 21,6 °C 27,2 °C 17,8 °C 29 % 1026,8 hPa 0,0 l/m² 2 min 826 W/m² 22,5 km/h (4 Bft) 98,00 %
30.04.2026 15:02 21,6 °C 27,8 °C 18,3 °C 29 % 1026,8 hPa 0,0 l/m² 2 min 821 W/m² 16,1 km/h (3 Bft) 95,65 %
30.04.2026 15:04 21,7 °C 27,8 °C 18,3 °C 29 % 1026,8 hPa 0,0 l/m² 2 min 819 W/m² 16,1 km/h (3 Bft) 95,74 %
30.04.2026 15:06 21,8 °C 27,2 °C 18,3 °C 28 % 1026,8 hPa 0,0 l/m² 2 min 817 W/m² 19,3 km/h (3 Bft) 97,87 %
30.04.2026 15:08 21,8 °C 27,2 °C 18,3 °C 28 % 1026,8 hPa 0,0 l/m² 2 min 814 W/m² 19,3 km/h (3 Bft) 95,12 %
30.04.2026 15:10 21,8 °C 27,2 °C 18,3 °C 28 % 1026,8 hPa 0,0 l/m² 2 min 810 W/m² 19,3 km/h (3 Bft) 98,18 %
30.04.2026 15:12 21,8 °C 27,2 °C 18,3 °C 28 % 1026,8 hPa 0,0 l/m² 2 min 808 W/m² 16,1 km/h (3 Bft) 96,00 %
30.04.2026 15:14 21,8 °C 27,2 °C 18,3 °C 28 % 1026,8 hPa 0,0 l/m² 2 min 805 W/m² 19,3 km/h (3 Bft) 94,74 %
30.04.2026 15:16 21,8 °C 27,2 °C 18,3 °C 28 % 1026,7 hPa 0,0 l/m² 2 min 803 W/m² 19,3 km/h (3 Bft) 95,74 %
30.04.2026 15:18 21,8 °C 27,8 °C 18,3 °C 28 % 1026,7 hPa 0,0 l/m² 2 min 800 W/m² 16,1 km/h (3 Bft) 95,92 %
30.04.2026 15:20 21,9 °C 27,8 °C 18,3 °C 29 % 1026,7 hPa 0,0 l/m² 2 min 798 W/m² 22,5 km/h (4 Bft) 93,62 %
30.04.2026 15:22 21,9 °C 27,2 °C 18,3 °C 28 % 1026,7 hPa 0,0 l/m² 2 min 795 W/m² 22,5 km/h (4 Bft) 94,00 %
30.04.2026 15:24 21,9 °C 26,7 °C 18,3 °C 28 % 1026,6 hPa 0,0 l/m² 2 min 790 W/m² 22,5 km/h (4 Bft) 95,74 %
30.04.2026 15:26 21,9 °C 27,8 °C 18,3 °C 28 % 1026,6 hPa 0,0 l/m² 2 min 786 W/m² 12,9 km/h (3 Bft) 94,00 %
30.04.2026 15:28 21,9 °C 27,8 °C 18,9 °C 28 % 1026,5 hPa 0,0 l/m² 2 min 787 W/m² 19,3 km/h (3 Bft) 95,24 %
30.04.2026 15:30 21,9 °C 27,2 °C 18,9 °C 27 % 1026,5 hPa 0,0 l/m² 2 min 783 W/m² 19,3 km/h (3 Bft) 94,00 %
30.04.2026 15:32 22,0 °C 27,2 °C 18,9 °C 27 % 1026,5 hPa 0,0 l/m² 2 min 780 W/m² 16,1 km/h (3 Bft) 97,37 %
30.04.2026 15:34 22,0 °C 27,2 °C 18,9 °C 27 % 1026,4 hPa 0,0 l/m² 2 min 777 W/m² 19,3 km/h (3 Bft) 95,74 %
30.04.2026 15:36 22,1 °C 27,8 °C 18,9 °C 28 % 1026,4 hPa 0,0 l/m² 2 min 774 W/m² 12,9 km/h (3 Bft) 91,49 %
30.04.2026 15:38 22,1 °C 27,8 °C 18,9 °C 28 % 1026,4 hPa 0,0 l/m² 2 min 771 W/m² 16,1 km/h (3 Bft) 96,15 %
30.04.2026 15:40 22,2 °C 27,2 °C 18,9 °C 28 % 1026,4 hPa 0,0 l/m² 2 min 766 W/m² 19,3 km/h (3 Bft) 91,49 %
30.04.2026 15:42 22,2 °C 27,8 °C 18,9 °C 29 % 1026,4 hPa 0,0 l/m² 2 min 762 W/m² 22,5 km/h (4 Bft) 97,87 %
30.04.2026 15:44 22,3 °C 27,2 °C 18,9 °C 27 % 1026,4 hPa 0,0 l/m² 2 min 759 W/m² 22,5 km/h (4 Bft) 97,87 %
30.04.2026 15:46 22,3 °C 27,2 °C 18,9 °C 28 % 1026,5 hPa 0,0 l/m² 2 min 756 W/m² 19,3 km/h (3 Bft) 96,00 %
30.04.2026 15:48 22,3 °C 27,2 °C 18,9 °C 28 % 1026,4 hPa 0,0 l/m² 2 min 753 W/m² 22,5 km/h (4 Bft) 100,00 %
30.04.2026 15:50 22,3 °C 27,2 °C 18,9 °C 27 % 1026,3 hPa 0,0 l/m² 2 min 752 W/m² 19,3 km/h (3 Bft) 94,34 %
30.04.2026 15:52 22,4 °C 27,2 °C 18,9 °C 27 % 1026,3 hPa 0,0 l/m² 2 min 743 W/m² 16,1 km/h (3 Bft) 98,00 %
30.04.2026 15:54 22,4 °C 27,8 °C 19,4 °C 27 % 1026,3 hPa 0,0 l/m² 2 min 740 W/m² 19,3 km/h (3 Bft) 97,83 %
30.04.2026 15:56 22,4 °C 27,2 °C 19,4 °C 27 % 1026,3 hPa 0,0 l/m² 2 min 736 W/m² 19,3 km/h (3 Bft) 97,87 %
30.04.2026 15:58 22,4 °C 27,2 °C 18,9 °C 28 % 1026,3 hPa 0,0 l/m² 2 min 732 W/m² 16,1 km/h (3 Bft) 100,00 %
30.04.2026 16:00 22,4 °C 27,2 °C 18,9 °C 28 % 1026,3 hPa 0,0 l/m² 2 min 727 W/m² 16,1 km/h (3 Bft) 97,87 %
30.04.2026 16:02 22,4 °C 26,7 °C 18,9 °C 28 % 1026,3 hPa 0,0 l/m² 2 min 724 W/m² 25,7 km/h (4 Bft) 98,00 %
30.04.2026 16:04 22,4 °C 26,1 °C 18,9 °C 28 % 1026,3 hPa 0,0 l/m² 2 min 721 W/m² 22,5 km/h (4 Bft) 97,87 %
30.04.2026 16:06 22,4 °C 26,1 °C 18,9 °C 27 % 1026,2 hPa 0,0 l/m² 2 min 718 W/m² 19,3 km/h (3 Bft) 100,00 %
30.04.2026 16:08 22,4 °C 26,1 °C 18,9 °C 27 % 1026,2 hPa 0,0 l/m² 2 min 714 W/m² 19,3 km/h (3 Bft) 97,37 %
30.04.2026 16:10 22,4 °C 26,7 °C 19,4 °C 28 % 1026,2 hPa 0,0 l/m² 2 min 712 W/m² 12,9 km/h (3 Bft) 100,00 %
30.04.2026 16:12 22,4 °C 27,2 °C 19,4 °C 28 % 1026,2 hPa 0,0 l/m² 2 min 707 W/m² 22,5 km/h (4 Bft) 100,00 %
30.04.2026 16:14 22,5 °C 27,2 °C 19,4 °C 28 % 1026,2 hPa 0,0 l/m² 2 min 702 W/m² 16,1 km/h (3 Bft) 98,00 %
30.04.2026 16:16 22,6 °C 27,2 °C 19,4 °C 28 % 1026,1 hPa 0,0 l/m² 2 min 700 W/m² 22,5 km/h (4 Bft) 97,87 %
30.04.2026 16:18 22,6 °C 27,2 °C 19,4 °C 28 % 1026,1 hPa 0,0 l/m² 2 min 693 W/m² 19,3 km/h (3 Bft) 97,87 %
30.04.2026 16:20 22,7 °C 27,8 °C 19,4 °C 28 % 1026,0 hPa 0,0 l/m² 2 min 690 W/m² 12,9 km/h (3 Bft) 97,87 %
30.04.2026 16:22 22,7 °C 27,2 °C 19,4 °C 28 % 1026,0 hPa 0,0 l/m² 2 min 687 W/m² 19,3 km/h (3 Bft) 98,00 %
30.04.2026 16:24 22,8 °C 27,2 °C 19,4 °C 28 % 1026,0 hPa 0,0 l/m² 2 min 683 W/m² 19,3 km/h (3 Bft) 97,87 %
30.04.2026 16:26 22,8 °C 26,7 °C 18,9 °C 27 % 1026,0 hPa 0,0 l/m² 2 min 678 W/m² 16,1 km/h (3 Bft) 97,37 %
30.04.2026 16:28 22,8 °C 27,2 °C 18,9 °C 27 % 1025,9 hPa 0,0 l/m² 2 min 675 W/m² 22,5 km/h (4 Bft) 98,08 %
30.04.2026 16:30 22,8 °C 26,7 °C 19,4 °C 28 % 1026,0 hPa 0,0 l/m² 2 min 670 W/m² 19,3 km/h (3 Bft) 97,87 %
30.04.2026 16:32 22,8 °C 27,2 °C 19,4 °C 28 % 1026,0 hPa 0,0 l/m² 2 min 665 W/m² 12,9 km/h (3 Bft) 95,74 %
30.04.2026 16:34 22,8 °C 26,7 °C 19,4 °C 28 % 1026,0 hPa 0,0 l/m² 2 min 660 W/m² 29,0 km/h (5 Bft) 97,87 %
30.04.2026 16:36 22,8 °C 27,2 °C 19,4 °C 28 % 1025,9 hPa 0,0 l/m² 2 min 656 W/m² 16,1 km/h (3 Bft) 97,87 %
30.04.2026 16:38 22,8 °C 26,7 °C 19,4 °C 28 % 1025,9 hPa 0,0 l/m² 2 min 652 W/m² 19,3 km/h (3 Bft) 97,87 %
30.04.2026 16:40 22,8 °C 27,2 °C 19,4 °C 27 % 1025,9 hPa 0,0 l/m² 2 min 646 W/m² 19,3 km/h (3 Bft) 97,87 %
30.04.2026 16:42 22,9 °C 27,2 °C 19,4 °C 28 % 1025,9 hPa 0,0 l/m² 2 min 642 W/m² 19,3 km/h (3 Bft) 97,14 %
30.04.2026 16:44 22,9 °C 26,7 °C 19,4 °C 28 % 1025,8 hPa 0,0 l/m² 2 min 637 W/m² 19,3 km/h (3 Bft) 97,92 %
30.04.2026 16:46 22,9 °C 26,7 °C 19,4 °C 27 % 1025,9 hPa 0,0 l/m² 2 min 631 W/m² 19,3 km/h (3 Bft) 98,08 %
30.04.2026 16:48 22,8 °C 26,7 °C 19,4 °C 28 % 1025,9 hPa 0,0 l/m² 2 min 628 W/m² 19,3 km/h (3 Bft) 97,87 %
30.04.2026 16:50 22,8 °C 26,7 °C 19,4 °C 27 % 1025,8 hPa 0,0 l/m² 2 min 623 W/m² 16,1 km/h (3 Bft) 100,00 %
30.04.2026 16:52 22,9 °C 27,2 °C 19,4 °C 28 % 1025,8 hPa 0,0 l/m² 2 min 618 W/m² 12,9 km/h (3 Bft) 100,00 %
30.04.2026 16:54 22,9 °C 27,8 °C 20,0 °C 28 % 1025,7 hPa 0,0 l/m² 2 min 613 W/m² 25,7 km/h (4 Bft) 100,00 %
30.04.2026 16:56 23,0 °C 26,7 °C 19,4 °C 27 % 1025,7 hPa 0,0 l/m² 2 min 610 W/m² 25,7 km/h (4 Bft) 100,00 %
30.04.2026 16:58 23,0 °C 26,1 °C 18,9 °C 27 % 1025,7 hPa 0,0 l/m² 2 min 603 W/m² 25,7 km/h (4 Bft) 100,00 %
30.04.2026 17:00 22,9 °C 26,7 °C 19,4 °C 28 % 1025,7 hPa 0,0 l/m² 2 min 596 W/m² 19,3 km/h (3 Bft) 100,00 %
30.04.2026 17:02 23,0 °C 26,7 °C 20,0 °C 28 % 1025,7 hPa 0,0 l/m² 2 min 593 W/m² 16,1 km/h (3 Bft) 100,00 %
30.04.2026 17:04 23,0 °C 26,7 °C 20,0 °C 28 % 1025,7 hPa 0,0 l/m² 2 min 588 W/m² 16,1 km/h (3 Bft) 100,00 %
30.04.2026 17:06 23,1 °C 27,2 °C 20,0 °C 28 % 1025,8 hPa 0,0 l/m² 2 min 583 W/m² 16,1 km/h (3 Bft) 100,00 %
30.04.2026 17:08 23,1 °C 26,7 °C 20,0 °C 28 % 1025,7 hPa 0,0 l/m² 2 min 578 W/m² 16,1 km/h (3 Bft) 100,00 %
30.04.2026 17:10 23,1 °C 27,2 °C 20,0 °C 28 % 1025,8 hPa 0,0 l/m² 2 min 571 W/m² 19,3 km/h (3 Bft) 100,00 %
30.04.2026 17:12 23,1 °C 26,7 °C 20,0 °C 27 % 1025,7 hPa 0,0 l/m² 2 min 568 W/m² 19,3 km/h (3 Bft) 100,00 %
30.04.2026 17:14 23,1 °C 26,1 °C 20,0 °C 27 % 1025,8 hPa 0,0 l/m² 2 min 563 W/m² 19,3 km/h (3 Bft) 100,00 %
30.04.2026 17:16 23,0 °C 26,1 °C 19,4 °C 27 % 1025,8 hPa 0,0 l/m² 2 min 558 W/m² 22,5 km/h (4 Bft) 100,00 %
30.04.2026 17:18 22,9 °C 26,1 °C 19,4 °C 27 % 1025,8 hPa 0,0 l/m² 2 min 552 W/m² 22,5 km/h (4 Bft) 100,00 %
30.04.2026 17:20 22,9 °C 26,1 °C 19,4 °C 28 % 1025,7 hPa 0,0 l/m² 2 min 545 W/m² 16,1 km/h (3 Bft) 100,00 %
30.04.2026 17:22 22,9 °C 26,7 °C 19,4 °C 28 % 1025,7 hPa 0,0 l/m² 2 min 541 W/m² 16,1 km/h (3 Bft) 100,00 %
30.04.2026 17:24 22,9 °C 26,1 °C 19,4 °C 28 % 1025,7 hPa 0,0 l/m² 2 min 535 W/m² 25,7 km/h (4 Bft) 100,00 %
30.04.2026 17:26 22,9 °C 26,7 °C 20,0 °C 29 % 1025,7 hPa 0,0 l/m² 2 min 529 W/m² 16,1 km/h (3 Bft) 100,00 %
30.04.2026 17:28 22,9 °C 27,2 °C 20,0 °C 28 % 1025,7 hPa 0,0 l/m² 2 min 524 W/m² 16,1 km/h (3 Bft) 100,00 %
30.04.2026 17:30 22,9 °C 26,7 °C 19,4 °C 27 % 1025,7 hPa 0,0 l/m² 2 min 518 W/m² 16,1 km/h (3 Bft) 100,00 %
30.04.2026 17:32 22,9 °C 27,2 °C 19,4 °C 28 % 1025,6 hPa 0,0 l/m² 2 min 512 W/m² 12,9 km/h (3 Bft) 100,00 %
30.04.2026 17:34 22,9 °C 26,7 °C 20,0 °C 28 % 1025,6 hPa 0,0 l/m² 2 min 506 W/m² 19,3 km/h (3 Bft) 100,00 %
30.04.2026 17:36 22,9 °C 26,1 °C 19,4 °C 28 % 1025,5 hPa 0,0 l/m² 2 min 502 W/m² 22,5 km/h (4 Bft) 100,00 %
30.04.2026 17:38 22,9 °C 26,7 °C 20,0 °C 28 % 1025,5 hPa 0,0 l/m² 2 min 496 W/m² 19,3 km/h (3 Bft) 97,87 %
30.04.2026 17:40 22,9 °C 27,2 °C 20,0 °C 28 % 1025,5 hPa 0,0 l/m² 2 min 490 W/m² 16,1 km/h (3 Bft) 97,87 %
30.04.2026 17:42 22,9 °C 27,2 °C 20,0 °C 28 % 1025,5 hPa 0,0 l/m² 2 min 486 W/m² 16,1 km/h (3 Bft) 100,00 %
30.04.2026 17:44 22,9 °C 26,7 °C 19,4 °C 29 % 1025,5 hPa 0,0 l/m² 2 min 479 W/m² 22,5 km/h (4 Bft) 100,00 %
30.04.2026 17:46 22,9 °C 26,7 °C 20,0 °C 28 % 1025,5 hPa 0,0 l/m² 2 min 474 W/m² 19,3 km/h (3 Bft) 94,00 %
30.04.2026 17:48 22,9 °C 27,2 °C 20,0 °C 28 % 1025,5 hPa 0,0 l/m² 2 min 468 W/m² 12,9 km/h (3 Bft) 97,96 %
30.04.2026 17:50 22,9 °C 26,7 °C 20,0 °C 28 % 1025,5 hPa 0,0 l/m² 2 min 461 W/m² 16,1 km/h (3 Bft) 97,22 %
30.04.2026 17:52 22,9 °C 27,2 °C 20,0 °C 29 % 1025,5 hPa 0,0 l/m² 2 min 457 W/m² 12,9 km/h (3 Bft) 97,96 %
30.04.2026 17:54 22,9 °C 26,7 °C 20,0 °C 29 % 1025,5 hPa 0,0 l/m² 2 min 451 W/m² 16,1 km/h (3 Bft) 95,74 %
30.04.2026 17:56 22,9 °C 26,1 °C 19,4 °C 28 % 1025,5 hPa 0,0 l/m² 2 min 444 W/m² 22,5 km/h (4 Bft) 96,00 %
30.04.2026 17:58 22,9 °C 27,2 °C 20,0 °C 29 % 1025,5 hPa 0,0 l/m² 2 min 432 W/m² 12,9 km/h (3 Bft) 98,00 %
30.04.2026 18:00 22,8 °C 26,1 °C 19,4 °C 28 % 1025,5 hPa 0,0 l/m² 2 min 429 W/m² 19,3 km/h (3 Bft) 97,37 %
30.04.2026 18:02 22,8 °C 26,1 °C 19,4 °C 29 % 1025,4 hPa 0,0 l/m² 2 min 428 W/m² 19,3 km/h (3 Bft) 97,87 %
30.04.2026 18:04 22,8 °C 26,1 °C 20,0 °C 28 % 1025,5 hPa 0,0 l/m² 2 min 413 W/m² 25,7 km/h (4 Bft) 96,00 %
30.04.2026 18:06 22,7 °C 26,1 °C 19,4 °C 28 % 1025,4 hPa 0,0 l/m² 2 min 413 W/m² 16,1 km/h (3 Bft) 93,62 %
30.04.2026 18:08 22,7 °C 26,1 °C 19,4 °C 28 % 1025,4 hPa 0,0 l/m² 2 min 413 W/m² 16,1 km/h (3 Bft) 96,15 %
30.04.2026 18:10 22,7 °C 26,1 °C 19,4 °C 28 % 1025,5 hPa 0,0 l/m² 2 min 407 W/m² 16,1 km/h (3 Bft) 94,87 %
30.04.2026 18:12 22,7 °C 26,7 °C 19,4 °C 28 % 1025,4 hPa 0,0 l/m² 2 min 403 W/m² 12,9 km/h (3 Bft) 95,65 %
30.04.2026 18:14 22,7 °C 26,7 °C 20,0 °C 29 % 1025,4 hPa 0,0 l/m² 2 min 398 W/m² 22,5 km/h (4 Bft) 94,00 %
30.04.2026 18:16 22,7 °C 26,1 °C 19,4 °C 28 % 1025,5 hPa 0,0 l/m² 2 min 393 W/m² 22,5 km/h (4 Bft) 93,62 %
30.04.2026 18:18 22,6 °C 26,1 °C 18,9 °C 28 % 1025,5 hPa 0,0 l/m² 2 min 388 W/m² 16,1 km/h (3 Bft) 94,74 %
30.04.2026 18:20 22,6 °C 26,1 °C 19,4 °C 29 % 1025,4 hPa 0,0 l/m² 2 min 383 W/m² 16,1 km/h (3 Bft) 94,64 %
30.04.2026 18:22 22,6 °C 26,1 °C 18,9 °C 28 % 1025,4 hPa 0,0 l/m² 2 min 378 W/m² 16,1 km/h (3 Bft) 93,62 %
30.04.2026 18:24 22,6 °C 26,7 °C 18,9 °C 29 % 1025,4 hPa 0,0 l/m² 2 min 371 W/m² 16,1 km/h (3 Bft) 86,96 %
30.04.2026 18:26 22,6 °C 26,7 °C 18,9 °C 29 % 1025,4 hPa 0,0 l/m² 2 min 364 W/m² 16,1 km/h (3 Bft) 93,62 %
30.04.2026 18:28 22,6 °C 26,7 °C 18,3 °C 29 % 1025,4 hPa 0,0 l/m² 2 min 359 W/m² 16,1 km/h (3 Bft) 95,74 %
30.04.2026 18:30 22,6 °C 26,1 °C 18,3 °C 29 % 1025,4 hPa 0,0 l/m² 2 min 350 W/m² 16,1 km/h (3 Bft) 95,74 %
30.04.2026 18:32 22,6 °C 26,7 °C 18,3 °C 29 % 1025,4 hPa 0,0 l/m² 2 min 341 W/m² 12,9 km/h (3 Bft) 92,00 %
30.04.2026 18:34 22,6 °C 26,7 °C 17,8 °C 29 % 1025,4 hPa 0,0 l/m² 2 min 333 W/m² 16,1 km/h (3 Bft) 95,74 %
30.04.2026 18:36 22,6 °C 26,1 °C 17,8 °C 29 % 1025,4 hPa 0,0 l/m² 2 min 325 W/m² 19,3 km/h (3 Bft) 96,00 %
30.04.2026 18:38 22,5 °C 25,6 °C 17,8 °C 29 % 1025,4 hPa 0,0 l/m² 2 min 321 W/m² 25,7 km/h (4 Bft) 91,30 %
30.04.2026 18:40 22,4 °C 25,6 °C 17,2 °C 29 % 1025,4 hPa 0,0 l/m² 2 min 314 W/m² 16,1 km/h (3 Bft) 93,62 %
30.04.2026 18:42 22,3 °C 25,0 °C 17,2 °C 29 % 1025,4 hPa 0,0 l/m² 2 min 307 W/m² 16,1 km/h (3 Bft) 94,74 %
30.04.2026 18:44 22,3 °C 25,0 °C 17,2 °C 29 % 1025,4 hPa 0,0 l/m² 2 min 298 W/m² 19,3 km/h (3 Bft) 95,74 %
30.04.2026 18:46 22,2 °C 24,4 °C 17,2 °C 30 % 1025,4 hPa 0,0 l/m² 2 min 292 W/m² 16,1 km/h (3 Bft) 95,74 %
30.04.2026 18:48 22,1 °C 22,8 °C 17,2 °C 29 % 1025,3 hPa 0,0 l/m² 2 min 286 W/m² 19,3 km/h (3 Bft) 95,74 %
30.04.2026 18:50 22,1 °C 21,7 °C 17,2 °C 30 % 1025,4 hPa 0,0 l/m² 2 min 278 W/m² 19,3 km/h (3 Bft) 95,74 %
30.04.2026 18:52 22,0 °C 21,1 °C 17,2 °C 30 % 1025,3 hPa 0,0 l/m² 2 min 271 W/m² 16,1 km/h (3 Bft) 94,00 %
30.04.2026 18:54 21,9 °C 20,6 °C 16,7 °C 30 % 1025,3 hPa 0,0 l/m² 2 min 264 W/m² 22,5 km/h (4 Bft) 95,74 %
30.04.2026 18:56 21,8 °C 20,6 °C 16,7 °C 30 % 1025,3 hPa 0,0 l/m² 2 min 258 W/m² 16,1 km/h (3 Bft) 100,00 %
30.04.2026 18:58 21,7 °C 20,6 °C 16,7 °C 30 % 1025,2 hPa 0,0 l/m² 2 min 247 W/m² 16,1 km/h (3 Bft) 98,44 %
30.04.2026 19:00 21,6 °C 20,6 °C 16,7 °C 30 % 1025,2 hPa 0,0 l/m² 2 min 241 W/m² 16,1 km/h (3 Bft) 100,00 %
30.04.2026 19:02 21,5 °C 20,6 °C 16,7 °C 31 % 1025,2 hPa 0,0 l/m² 2 min 233 W/m² 16,1 km/h (3 Bft) 100,00 %
30.04.2026 19:04 21,4 °C 20,0 °C 16,7 °C 31 % 1025,2 hPa 0,0 l/m² 2 min 201 W/m² 16,1 km/h (3 Bft) 100,00 %
30.04.2026 19:06 21,3 °C 20,0 °C 16,7 °C 31 % 1025,2 hPa 0,0 l/m² 0 min 92 W/m² 12,9 km/h (3 Bft) 100,00 %
30.04.2026 19:08 21,3 °C 20,0 °C 16,7 °C 32 % 1025,2 hPa 0,0 l/m² 0 min 41 W/m² 12,9 km/h (3 Bft) 100,00 %
30.04.2026 19:10 21,2 °C 20,0 °C 16,7 °C 33 % 1025,2 hPa 0,0 l/m² 0 min 36 W/m² 12,9 km/h (3 Bft) 100,00 %
30.04.2026 19:12 21,2 °C 20,0 °C 16,1 °C 33 % 1025,2 hPa 0,0 l/m² 0 min 35 W/m² 12,9 km/h (3 Bft) 97,96 %
30.04.2026 19:14 21,1 °C 20,0 °C 16,1 °C 33 % 1025,2 hPa 0,0 l/m² 0 min 33 W/m² 19,3 km/h (3 Bft) 100,00 %
30.04.2026 19:16 20,9 °C 20,0 °C 16,1 °C 32 % 1025,3 hPa 0,0 l/m² 0 min 33 W/m² 16,1 km/h (3 Bft) 100,00 %
30.04.2026 19:18 20,9 °C 20,0 °C 16,1 °C 32 % 1025,3 hPa 0,0 l/m² 0 min 33 W/m² 12,9 km/h (3 Bft) 100,00 %
30.04.2026 19:20 20,8 °C 19,4 °C 16,1 °C 32 % 1025,3 hPa 0,0 l/m² 0 min 32 W/m² 19,3 km/h (3 Bft) 97,87 %
30.04.2026 19:22 20,7 °C 19,4 °C 16,1 °C 32 % 1025,3 hPa 0,0 l/m² 0 min 32 W/m² 19,3 km/h (3 Bft) 100,00 %
30.04.2026 19:24 20,7 °C 19,4 °C 16,1 °C 32 % 1025,3 hPa 0,0 l/m² 0 min 32 W/m² 12,9 km/h (3 Bft) 97,87 %
30.04.2026 19:26 20,6 °C 19,4 °C 16,1 °C 33 % 1025,3 hPa 0,0 l/m² 0 min 32 W/m² 12,9 km/h (3 Bft) 100,00 %
30.04.2026 19:28 20,6 °C 19,4 °C 16,1 °C 33 % 1025,3 hPa 0,0 l/m² 0 min 30 W/m² 12,9 km/h (3 Bft) 100,00 %
30.04.2026 19:30 20,6 °C 19,4 °C 16,1 °C 33 % 1025,4 hPa 0,0 l/m² 0 min 30 W/m² 12,9 km/h (3 Bft) 98,00 %
30.04.2026 19:32 20,5 °C 19,4 °C 16,1 °C 32 % 1025,4 hPa 0,0 l/m² 0 min 30 W/m² 19,3 km/h (3 Bft) 100,00 %
30.04.2026 19:34 20,4 °C 19,4 °C 16,1 °C 33 % 1025,4 hPa 0,0 l/m² 0 min 30 W/m² 12,9 km/h (3 Bft) 100,00 %
30.04.2026 19:36 20,4 °C 19,4 °C 15,6 °C 33 % 1025,4 hPa 0,0 l/m² 0 min 30 W/m² 6,4 km/h (2 Bft) 97,87 %
30.04.2026 19:38 20,3 °C 19,4 °C 15,6 °C 34 % 1025,4 hPa 0,0 l/m² 0 min 29 W/m² 6,4 km/h (2 Bft) 100,00 %
30.04.2026 19:40 20,3 °C 18,9 °C 15,6 °C 34 % 1025,4 hPa 0,0 l/m² 0 min 28 W/m² 16,1 km/h (3 Bft) 100,00 %
30.04.2026 19:42 20,3 °C 18,9 °C 15,6 °C 34 % 1025,4 hPa 0,0 l/m² 0 min 27 W/m² 12,9 km/h (3 Bft) 100,00 %
30.04.2026 19:44 20,2 °C 18,9 °C 15,6 °C 34 % 1025,4 hPa 0,0 l/m² 0 min 26 W/m² 12,9 km/h (3 Bft) 97,22 %
30.04.2026 19:46 20,1 °C 18,9 °C 15,6 °C 35 % 1025,4 hPa 0,0 l/m² 0 min 26 W/m² 12,9 km/h (3 Bft) 100,00 %
30.04.2026 19:48 20,1 °C 18,9 °C 15,6 °C 34 % 1025,4 hPa 0,0 l/m² 0 min 25 W/m² 9,7 km/h (2 Bft) 96,00 %
30.04.2026 19:50 20,1 °C 18,9 °C 15,6 °C 35 % 1025,4 hPa 0,0 l/m² 0 min 25 W/m² 12,9 km/h (3 Bft) 100,00 %
30.04.2026 19:52 20,0 °C 18,9 °C 15,6 °C 35 % 1025,3 hPa 0,0 l/m² 0 min 25 W/m² 19,3 km/h (3 Bft) 97,62 %
30.04.2026 19:54 19,9 °C 18,9 °C 15,0 °C 34 % 1025,4 hPa 0,0 l/m² 0 min 24 W/m² 12,9 km/h (3 Bft) 100,00 %
30.04.2026 19:56 19,9 °C 18,9 °C 15,0 °C 34 % 1025,3 hPa 0,0 l/m² 0 min 23 W/m² 12,9 km/h (3 Bft) 98,11 %
30.04.2026 19:58 19,8 °C 18,9 °C 15,0 °C 34 % 1025,4 hPa 0,0 l/m² 0 min 23 W/m² 16,1 km/h (3 Bft) 97,87 %
30.04.2026 20:00 19,8 °C 18,9 °C 15,0 °C 35 % 1025,3 hPa 0,0 l/m² 0 min 21 W/m² 6,4 km/h (2 Bft) 100,00 %
30.04.2026 20:02 19,8 °C 18,3 °C 15,0 °C 35 % 1025,3 hPa 0,0 l/m² 0 min 21 W/m² 12,9 km/h (3 Bft) 100,00 %
30.04.2026 20:04 19,7 °C 18,3 °C 15,0 °C 35 % 1025,3 hPa 0,0 l/m² 0 min 21 W/m² 9,7 km/h (2 Bft) 100,00 %
30.04.2026 20:06 19,7 °C 18,3 °C 15,0 °C 35 % 1025,3 hPa 0,0 l/m² 0 min 19 W/m² 9,7 km/h (2 Bft) 100,00 %
30.04.2026 20:08 19,6 °C 18,3 °C 15,0 °C 35 % 1025,3 hPa 0,0 l/m² 0 min 19 W/m² 6,4 km/h (2 Bft) 100,00 %
30.04.2026 20:10 19,6 °C 18,3 °C 15,0 °C 35 % 1025,4 hPa 0,0 l/m² 0 min 18 W/m² 6,4 km/h (2 Bft) 100,00 %
30.04.2026 20:12 19,5 °C 18,3 °C 15,0 °C 36 % 1025,4 hPa 0,0 l/m² 0 min 18 W/m² 6,4 km/h (2 Bft) 97,87 %
30.04.2026 20:14 19,4 °C 17,8 °C 14,4 °C 36 % 1025,4 hPa 0,0 l/m² 0 min 18 W/m² 9,7 km/h (2 Bft) 94,00 %
30.04.2026 20:16 19,4 °C 17,8 °C 14,4 °C 36 % 1025,4 hPa 0,0 l/m² 0 min 17 W/m² 6,4 km/h (2 Bft) 100,00 %
30.04.2026 20:18 19,3 °C 17,8 °C 14,4 °C 37 % 1025,4 hPa 0,0 l/m² 0 min 16 W/m² 6,4 km/h (2 Bft) 100,00 %
30.04.2026 20:20 19,3 °C 17,8 °C 14,4 °C 37 % 1025,4 hPa 0,0 l/m² 0 min 16 W/m² 6,4 km/h (2 Bft) 97,87 %
30.04.2026 20:22 19,2 °C 17,8 °C 14,4 °C 37 % 1025,4 hPa 0,0 l/m² 0 min 15 W/m² 6,4 km/h (2 Bft) 95,12 %
30.04.2026 20:24 19,1 °C 17,8 °C 14,4 °C 37 % 1025,4 hPa 0,0 l/m² 0 min 14 W/m² 12,9 km/h (3 Bft) 93,62 %
30.04.2026 20:26 19,1 °C 17,8 °C 14,4 °C 37 % 1025,5 hPa 0,0 l/m² 0 min 14 W/m² 6,4 km/h (2 Bft) 95,74 %
30.04.2026 20:28 19,0 °C 17,8 °C 13,9 °C 37 % 1025,5 hPa 0,0 l/m² 0 min 14 W/m² 16,1 km/h (3 Bft) 93,62 %
30.04.2026 20:30 18,9 °C 17,2 °C 13,9 °C 38 % 1025,5 hPa 0,0 l/m² 0 min 12 W/m² 12,9 km/h (3 Bft) 93,62 %
30.04.2026 20:32 18,8 °C 17,2 °C 13,9 °C 38 % 1025,5 hPa 0,0 l/m² 0 min 12 W/m² 6,4 km/h (2 Bft) 93,62 %
30.04.2026 20:34 18,8 °C 17,2 °C 13,9 °C 39 % 1025,5 hPa 0,0 l/m² 0 min 11 W/m² 3,2 km/h (1 Bft) 92,86 %
30.04.2026 20:36 18,7 °C 17,2 °C 13,9 °C 39 % 1025,5 hPa 0,0 l/m² 0 min 11 W/m² 3,2 km/h (1 Bft) 95,92 %
30.04.2026 20:38 18,6 °C 16,7 °C 13,9 °C 39 % 1025,5 hPa 0,0 l/m² 0 min 11 W/m² 6,4 km/h (2 Bft) 93,62 %
30.04.2026 20:40 18,5 °C 16,7 °C 13,3 °C 39 % 1025,5 hPa 0,0 l/m² 0 min 9 W/m² 3,2 km/h (1 Bft) 92,00 %
30.04.2026 20:42 18,4 °C 16,7 °C 13,3 °C 40 % 1025,6 hPa 0,0 l/m² 0 min 9 W/m² 6,4 km/h (2 Bft) 93,62 %
30.04.2026 20:44 18,3 °C 16,7 °C 13,3 °C 40 % 1025,6 hPa 0,0 l/m² 0 min 8 W/m² 3,2 km/h (1 Bft) 95,74 %
30.04.2026 20:46 18,2 °C 16,7 °C 13,3 °C 40 % 1025,5 hPa 0,0 l/m² 0 min 7 W/m² 6,4 km/h (2 Bft) 93,62 %
30.04.2026 20:48 18,2 °C 16,7 °C 13,3 °C 40 % 1025,6 hPa 0,0 l/m² 0 min 7 W/m² 3,2 km/h (1 Bft) 93,62 %
30.04.2026 20:50 18,1 °C 16,7 °C 13,3 °C 41 % 1025,6 hPa 0,0 l/m² 0 min 5 W/m² 3,2 km/h (1 Bft) 93,62 %
30.04.2026 20:52 18,1 °C 16,1 °C 12,8 °C 41 % 1025,6 hPa 0,0 l/m² 0 min 5 W/m² 6,4 km/h (2 Bft) 93,62 %
30.04.2026 20:54 17,9 °C 16,1 °C 12,8 °C 41 % 1025,6 hPa 0,0 l/m² 0 min 5 W/m² 9,7 km/h (2 Bft) 93,88 %
30.04.2026 20:56 17,8 °C 16,1 °C 13,3 °C 41 % 1025,7 hPa 0,0 l/m² 0 min 2 W/m² 12,9 km/h (3 Bft) 95,74 %
30.04.2026 20:58 17,8 °C 16,1 °C 12,8 °C 41 % 1025,7 hPa 0,0 l/m² 0 min 0 W/m² 6,4 km/h (2 Bft) 93,62 %
30.04.2026 21:00 17,7 °C 16,1 °C 12,8 °C 41 % 1025,8 hPa 0,0 l/m² 0 min 0 W/m² 9,7 km/h (2 Bft) 95,74 %
30.04.2026 21:02 17,6 °C 16,1 °C 12,8 °C 41 % 1025,8 hPa 0,0 l/m² 0 min 0 W/m² 6,4 km/h (2 Bft) 95,45 %
30.04.2026 21:04 17,6 °C 16,1 °C 12,8 °C 41 % 1025,9 hPa 0,0 l/m² 0 min 0 W/m² 6,4 km/h (2 Bft) 93,62 %
30.04.2026 21:06 17,5 °C 16,1 °C 12,8 °C 41 % 1025,9 hPa 0,0 l/m² 0 min 0 W/m² 3,2 km/h (1 Bft) 96,00 %
30.04.2026 21:08 17,4 °C 16,1 °C 12,8 °C 41 % 1025,9 hPa 0,0 l/m² 0 min 0 W/m² 6,4 km/h (2 Bft) 95,65 %
30.04.2026 21:10 17,4 °C 16,1 °C 12,8 °C 41 % 1025,9 hPa 0,0 l/m² 0 min 0 W/m² 6,4 km/h (2 Bft) 97,87 %
30.04.2026 21:12 17,3 °C 15,6 °C 12,8 °C 41 % 1025,9 hPa 0,0 l/m² 0 min 0 W/m² 3,2 km/h (1 Bft) 97,37 %
30.04.2026 21:14 17,2 °C 15,6 °C 12,8 °C 42 % 1025,9 hPa 0,0 l/m² 0 min 0 W/m² 6,4 km/h (2 Bft) 95,74 %
30.04.2026 21:16 17,2 °C 15,6 °C 12,2 °C 41 % 1026,0 hPa 0,0 l/m² 0 min 0 W/m² 6,4 km/h (2 Bft) 96,00 %
30.04.2026 21:18 17,1 °C 15,6 °C 12,2 °C 42 % 1026,0 hPa 0,0 l/m² 0 min 0 W/m² 3,2 km/h (1 Bft) 96,00 %
30.04.2026 21:20 17,1 °C 15,6 °C 12,2 °C 42 % 1026,1 hPa 0,0 l/m² 0 min 0 W/m² 0,0 km/h (0 Bft) 98,00 %
30.04.2026 21:22 17,0 °C 15,6 °C 12,2 °C 42 % 1026,0 hPa 0,0 l/m² 0 min 0 W/m² 0,0 km/h (0 Bft) 95,74 %
30.04.2026 21:24 16,9 °C 15,6 °C 12,2 °C 42 % 1026,1 hPa 0,0 l/m² 0 min 0 W/m² 0,0 km/h (0 Bft) 97,37 %
30.04.2026 21:26 16,9 °C 15,6 °C 12,2 °C 43 % 1026,1 hPa 0,0 l/m² 0 min 0 W/m² 0,0 km/h (0 Bft) 97,87 %
30.04.2026 21:28 16,8 °C 15,6 °C 12,2 °C 42 % 1026,1 hPa 0,0 l/m² 0 min 0 W/m² 0,0 km/h (0 Bft) 97,83 %
30.04.2026 21:30 16,8 °C 15,0 °C 12,2 °C 42 % 1026,1 hPa 0,0 l/m² 0 min 0 W/m² 0,0 km/h (0 Bft) 100,00 %
30.04.2026 21:32 16,7 °C 15,0 °C 12,2 °C 43 % 1026,1 hPa 0,0 l/m² 0 min 0 W/m² 0,0 km/h (0 Bft) 100,00 %
30.04.2026 21:34 16,7 °C 15,0 °C 12,2 °C 43 % 1026,1 hPa 0,0 l/m² 0 min 0 W/m² 0,0 km/h (0 Bft) 100,00 %
30.04.2026 21:36 16,6 °C 15,0 °C 11,7 °C 43 % 1026,2 hPa 0,0 l/m² 0 min 0 W/m² 0,0 km/h (0 Bft) 100,00 %
30.04.2026 21:38 16,6 °C 15,0 °C 11,7 °C 43 % 1026,2 hPa 0,0 l/m² 0 min 0 W/m² 0,0 km/h (0 Bft) 100,00 %
30.04.2026 21:40 16,5 °C 15,0 °C 11,7 °C 43 % 1026,3 hPa 0,0 l/m² 0 min 0 W/m² 0,0 km/h (0 Bft) 100,00 %
30.04.2026 21:42 16,4 °C 15,0 °C 11,7 °C 43 % 1026,3 hPa 0,0 l/m² 0 min 0 W/m² 0,0 km/h (0 Bft) 100,00 %
30.04.2026 21:44 16,4 °C 15,0 °C 11,7 °C 43 % 1026,3 hPa 0,0 l/m² 0 min 0 W/m² 0,0 km/h (0 Bft) 100,00 %
30.04.2026 21:46 16,3 °C 15,0 °C 11,7 °C 43 % 1026,3 hPa 0,0 l/m² 0 min 0 W/m² 0,0 km/h (0 Bft) 100,00 %
30.04.2026 21:48 16,3 °C 15,0 °C 11,7 °C 43 % 1026,3 hPa 0,0 l/m² 0 min 0 W/m² 0,0 km/h (0 Bft) 100,00 %
30.04.2026 21:50 16,3 °C 14,4 °C 11,7 °C 44 % 1026,3 hPa 0,0 l/m² 0 min 0 W/m² 0,0 km/h (0 Bft) 100,00 %
30.04.2026 21:52 16,2 °C 14,4 °C 11,7 °C 43 % 1026,3 hPa 0,0 l/m² 0 min 0 W/m² 3,2 km/h (1 Bft) 100,00 %
30.04.2026 21:54 16,2 °C 14,4 °C 11,7 °C 44 % 1026,3 hPa 0,0 l/m² 0 min 0 W/m² 3,2 km/h (1 Bft) 100,00 %
30.04.2026 21:56 16,1 °C 14,4 °C 11,7 °C 43 % 1026,3 hPa 0,0 l/m² 0 min 0 W/m² 6,4 km/h (2 Bft) 97,87 %
30.04.2026 21:58 16,1 °C 14,4 °C 11,7 °C 44 % 1026,3 hPa 0,0 l/m² 0 min 0 W/m² 6,4 km/h (2 Bft) 100,00 %
30.04.2026 22:00 16,1 °C 15,0 °C 11,7 °C 43 % 1026,4 hPa 0,0 l/m² 0 min 0 W/m² 6,4 km/h (2 Bft) 97,83 %
30.04.2026 22:02 16,1 °C 15,0 °C 11,7 °C 43 % 1026,3 hPa 0,0 l/m² 0 min 0 W/m² 3,2 km/h (1 Bft) 100,00 %
30.04.2026 22:04 16,1 °C 15,0 °C 11,7 °C 43 % 1026,4 hPa 0,0 l/m² 0 min 0 W/m² 6,4 km/h (2 Bft) 100,00 %
30.04.2026 22:06 16,1 °C 15,0 °C 11,7 °C 43 % 1026,4 hPa 0,0 l/m² 0 min 0 W/m² 6,4 km/h (2 Bft) 100,00 %
30.04.2026 22:08 16,0 °C 15,0 °C 11,7 °C 43 % 1026,4 hPa 0,0 l/m² 0 min 0 W/m² 6,4 km/h (2 Bft) 100,00 %
30.04.2026 22:10 16,0 °C 14,4 °C 11,7 °C 44 % 1026,4 hPa 0,0 l/m² 0 min 0 W/m² 6,4 km/h (2 Bft) 96,00 %
30.04.2026 22:12 16,0 °C 14,4 °C 11,7 °C 43 % 1026,4 hPa 0,0 l/m² 0 min 0 W/m² 6,4 km/h (2 Bft) 97,87 %
30.04.2026 22:14 15,9 °C 14,4 °C 11,1 °C 44 % 1026,4 hPa 0,0 l/m² 0 min 0 W/m² 3,2 km/h (1 Bft) 97,83 %
30.04.2026 22:16 15,9 °C 14,4 °C 11,1 °C 44 % 1026,4 hPa 0,0 l/m² 0 min 0 W/m² 3,2 km/h (1 Bft) 97,87 %
30.04.2026 22:18 15,9 °C 14,4 °C 11,1 °C 44 % 1026,4 hPa 0,0 l/m² 0 min 0 W/m² 6,4 km/h (2 Bft) 97,87 %
30.04.2026 22:20 15,8 °C 14,4 °C 11,1 °C 44 % 1026,4 hPa 0,0 l/m² 0 min 0 W/m² 3,2 km/h (1 Bft) 97,87 %
30.04.2026 22:22 15,8 °C 14,4 °C 11,1 °C 44 % 1026,5 hPa 0,0 l/m² 0 min 0 W/m² 6,4 km/h (2 Bft) 94,29 %
30.04.2026 22:24 15,7 °C 13,9 °C 11,1 °C 45 % 1026,5 hPa 0,0 l/m² 0 min 0 W/m² 3,2 km/h (1 Bft) 98,21 %
30.04.2026 22:26 15,7 °C 13,9 °C 10,6 °C 45 % 1026,4 hPa 0,0 l/m² 0 min 0 W/m² 3,2 km/h (1 Bft) 96,00 %
30.04.2026 22:28 15,6 °C 13,9 °C 11,1 °C 45 % 1026,5 hPa 0,0 l/m² 0 min 0 W/m² 6,4 km/h (2 Bft) 97,14 %
30.04.2026 22:30 15,6 °C 13,9 °C 11,1 °C 45 % 1026,5 hPa 0,0 l/m² 0 min 0 W/m² 3,2 km/h (1 Bft) 97,87 %
30.04.2026 22:32 15,5 °C 13,9 °C 10,6 °C 46 % 1026,5 hPa 0,0 l/m² 0 min 0 W/m² 3,2 km/h (1 Bft) 98,00 %
30.04.2026 22:34 15,5 °C 13,9 °C 10,6 °C 46 % 1026,5 hPa 0,0 l/m² 0 min 0 W/m² 3,2 km/h (1 Bft) 95,65 %
30.04.2026 22:36 15,4 °C 13,9 °C 10,6 °C 46 % 1026,5 hPa 0,0 l/m² 0 min 0 W/m² 3,2 km/h (1 Bft) 97,87 %
30.04.2026 22:38 15,3 °C 13,3 °C 10,6 °C 47 % 1026,5 hPa 0,0 l/m² 0 min 0 W/m² 6,4 km/h (2 Bft) 100,00 %
30.04.2026 22:40 15,3 °C 13,9 °C 10,6 °C 47 % 1026,5 hPa 0,0 l/m² 0 min 0 W/m² 6,4 km/h (2 Bft) 96,00 %
30.04.2026 22:42 15,2 °C 13,3 °C 10,6 °C 47 % 1026,5 hPa 0,0 l/m² 0 min 0 W/m² 3,2 km/h (1 Bft) 100,00 %
30.04.2026 22:44 15,2 °C 13,3 °C 10,6 °C 47 % 1026,6 hPa 0,0 l/m² 0 min 0 W/m² 3,2 km/h (1 Bft) 100,00 %
30.04.2026 22:46 15,1 °C 13,3 °C 10,0 °C 48 % 1026,6 hPa 0,0 l/m² 0 min 0 W/m² 6,4 km/h (2 Bft) 100,00 %
30.04.2026 22:48 15,1 °C 13,3 °C 10,0 °C 47 % 1026,6 hPa 0,0 l/m² 0 min 0 W/m² 6,4 km/h (2 Bft) 100,00 %
30.04.2026 22:50 14,9 °C 13,3 °C 10,0 °C 47 % 1026,6 hPa 0,0 l/m² 0 min 0 W/m² 6,4 km/h (2 Bft) 100,00 %
30.04.2026 22:52 14,9 °C 12,8 °C 10,0 °C 47 % 1026,6 hPa 0,0 l/m² 0 min 0 W/m² 6,4 km/h (2 Bft) 100,00 %
30.04.2026 22:54 14,8 °C 12,8 °C 10,0 °C 47 % 1026,5 hPa 0,0 l/m² 0 min 0 W/m² 6,4 km/h (2 Bft) 100,00 %
30.04.2026 22:56 14,7 °C 12,8 °C 10,0 °C 47 % 1026,5 hPa 0,0 l/m² 0 min 0 W/m² 6,4 km/h (2 Bft) 98,00 %
30.04.2026 22:58 14,7 °C 12,8 °C 10,0 °C 48 % 1026,6 hPa 0,0 l/m² 0 min 0 W/m² 3,2 km/h (1 Bft) 97,62 %
30.04.2026 23:00 14,6 °C 13,3 °C 10,0 °C 48 % 1026,7 hPa 0,0 l/m² 0 min 0 W/m² 6,4 km/h (2 Bft) 100,00 %
30.04.2026 23:02 14,6 °C 13,3 °C 10,0 °C 48 % 1026,7 hPa 0,0 l/m² 0 min 0 W/m² 6,4 km/h (2 Bft) 100,00 %
30.04.2026 23:04 14,5 °C 13,3 °C 10,0 °C 49 % 1026,7 hPa 0,0 l/m² 0 min 0 W/m² 6,4 km/h (2 Bft) 100,00 %
30.04.2026 23:06 14,4 °C 13,3 °C 10,0 °C 49 % 1026,7 hPa 0,0 l/m² 0 min 0 W/m² 6,4 km/h (2 Bft) 97,87 %
30.04.2026 23:08 14,4 °C 13,3 °C 10,0 °C 49 % 1026,7 hPa 0,0 l/m² 0 min 0 W/m² 6,4 km/h (2 Bft) 97,87 %
30.04.2026 23:10 14,4 °C 13,3 °C 10,0 °C 49 % 1026,7 hPa 0,0 l/m² 0 min 0 W/m² 6,4 km/h (2 Bft) 95,92 %
30.04.2026 23:12 14,3 °C 12,8 °C 10,0 °C 49 % 1026,7 hPa 0,0 l/m² 0 min 0 W/m² 6,4 km/h (2 Bft) 95,74 %
30.04.2026 23:14 14,3 °C 12,8 °C 10,0 °C 49 % 1026,7 hPa 0,0 l/m² 0 min 0 W/m² 6,4 km/h (2 Bft) 98,00 %
30.04.2026 23:16 14,3 °C 12,8 °C 10,0 °C 49 % 1026,8 hPa 0,0 l/m² 0 min 0 W/m² 6,4 km/h (2 Bft) 95,74 %
30.04.2026 23:18 14,3 °C 12,8 °C 10,0 °C 49 % 1026,7 hPa 0,0 l/m² 0 min 0 W/m² 6,4 km/h (2 Bft) 97,87 %
30.04.2026 23:20 14,3 °C 12,8 °C 10,0 °C 50 % 1026,7 hPa 0,0 l/m² 0 min 0 W/m² 6,4 km/h (2 Bft) 100,00 %
30.04.2026 23:22 14,3 °C 12,8 °C 10,0 °C 50 % 1026,7 hPa 0,0 l/m² 0 min 0 W/m² 6,4 km/h (2 Bft) 97,14 %
30.04.2026 23:24 14,3 °C 12,8 °C 9,4 °C 50 % 1026,7 hPa 0,0 l/m² 0 min 0 W/m² 6,4 km/h (2 Bft) 92,19 %
30.04.2026 23:26 14,2 °C 12,8 °C 10,0 °C 50 % 1026,7 hPa 0,0 l/m² 0 min 0 W/m² 6,4 km/h (2 Bft) 95,74 %
30.04.2026 23:28 14,1 °C 12,8 °C 9,4 °C 50 % 1026,7 hPa 0,0 l/m² 0 min 0 W/m² 9,7 km/h (2 Bft) 94,00 %
30.04.2026 23:30 14,1 °C 12,8 °C 10,0 °C 51 % 1026,7 hPa 0,0 l/m² 0 min 0 W/m² 6,4 km/h (2 Bft) 94,74 %
30.04.2026 23:32 14,1 °C 12,8 °C 9,4 °C 51 % 1026,8 hPa 0,0 l/m² 0 min 0 W/m² 6,4 km/h (2 Bft) 95,74 %
30.04.2026 23:34 14,0 °C 12,8 °C 9,4 °C 51 % 1026,8 hPa 0,0 l/m² 0 min 0 W/m² 6,4 km/h (2 Bft) 91,49 %
30.04.2026 23:36 13,9 °C 12,8 °C 9,4 °C 51 % 1026,7 hPa 0,0 l/m² 0 min 0 W/m² 6,4 km/h (2 Bft) 94,64 %
30.04.2026 23:38 13,9 °C 12,8 °C 9,4 °C 51 % 1026,7 hPa 0,0 l/m² 0 min 0 W/m² 6,4 km/h (2 Bft) 94,74 %
30.04.2026 23:40 13,9 °C 12,8 °C 9,4 °C 51 % 1026,7 hPa 0,0 l/m² 0 min 0 W/m² 9,7 km/h (2 Bft) 91,30 %
30.04.2026 23:42 13,9 °C 12,8 °C 9,4 °C 51 % 1026,7 hPa 0,0 l/m² 0 min 0 W/m² 6,4 km/h (2 Bft) 94,00 %
30.04.2026 23:44 13,9 °C 12,8 °C 10,0 °C 50 % 1026,7 hPa 0,0 l/m² 0 min 0 W/m² 6,4 km/h (2 Bft) 95,74 %
30.04.2026 23:46 13,9 °C 12,8 °C 9,4 °C 51 % 1026,7 hPa 0,0 l/m² 0 min 0 W/m² 6,4 km/h (2 Bft) 95,74 %
30.04.2026 23:48 13,8 °C 12,8 °C 10,0 °C 51 % 1026,7 hPa 0,0 l/m² 0 min 0 W/m² 6,4 km/h (2 Bft) 95,24 %
30.04.2026 23:50 13,8 °C 12,8 °C 9,4 °C 51 % 1026,8 hPa 0,0 l/m² 0 min 0 W/m² 6,4 km/h (2 Bft) 95,74 %
30.04.2026 23:52 13,8 °C 12,8 °C 9,4 °C 50 % 1026,7 hPa 0,0 l/m² 0 min 0 W/m² 9,7 km/h (2 Bft) 95,74 %
30.04.2026 23:54 13,8 °C 12,8 °C 10,0 °C 50 % 1026,7 hPa 0,0 l/m² 0 min 0 W/m² 6,4 km/h (2 Bft) 91,49 %
30.04.2026 23:56 13,8 °C 12,8 °C 10,0 °C 50 % 1026,7 hPa 0,0 l/m² 0 min 0 W/m² 6,4 km/h (2 Bft) 95,92 %
30.04.2026 23:58 13,9 °C 12,8 °C 10,0 °C 50 % 1026,7 hPa 0,0 l/m² 0 min 0 W/m² 6,4 km/h (2 Bft) 96,00 %
_ Min-Zeit 06:28 05:24 05:34 14:04 18:58 - - - 00:02 00:02
Minimum _ 5,1 °C 4,4 °C 1,7 °C 27 % 1025,2 hPa - - - 0,0 km/h (0 Bft) 11,11 %
_ Max-Zeit 17:06 14:14 13:18 05:56 08:26 00:00 08:28 13:24 12:00 00:10
Maximum _ 23,1 °C 28,9 °C 24,4 °C 75 % 1029,4 hPa 0,0 l/m² 2 min 880 W/m² 38,6 km/h
S (5 Bft)
100,00 %
Durchschnitt _ 14,6 °C 16,0 °C 11,1 °C 46 % 1027,5 hPa #0,0 l/m² #10:30 h 479 W/m² 11,8 km/h (2 Bft) 97,05 %
© 2026 W. Hausmann